Observation data for Amarillo 15 North Northwest on 01/17/2019      Previous  Date  Next       Current Mesonet Observations  Soil Data  Daily Summary Page  Observations in Plain Language
KAM3 170600Z 05008KT 02/M01 A3008 RMK A01 T00211013  RH  078%=      5-min Rain = 0
KAM3 170601Z 05008KT 02/M01 A3008 RMK A01 T00201012  RH  079%=      5-min Rain = 0
KAM3 170602Z 04009KT 02/M01 A3008 RMK A01 T00191012  RH  080%=      5-min Rain = 0
KAM3 170603Z 04009KT 02/M01 A3008 RMK A01 T00181012  RH  081%=      5-min Rain = 0
KAM3 170604Z 04008KT 02/M01 A3008 RMK A01 T00161012  RH  081%=      5-min Rain = 0
KAM3 170605Z 04009KT 02/M01 A3008 RMK A01 T00151013  RH  082%=      5-min Rain = 0
KAM3 170606Z 05009KT 01/M01 A3008 RMK A01 T00141013  RH  082%=      5-min Rain = 0
KAM3 170607Z 05009KT 01/M01 A3008 RMK A01 T00141012  RH  083%=      5-min Rain = 0
KAM3 170608Z 05008KT 01/M01 A3008 RMK A01 T00121013  RH  083%=      5-min Rain = 0
KAM3 170609Z 05008KT 01/M01 A3008 RMK A01 T00111013  RH  084%=      5-min Rain = 0
KAM3 170610Z 05007KT 01/M01 A3008 RMK A01 T00111012  RH  085%=      5-min Rain = 0
KAM3 170611Z 05006KT 01/M01 A3008 RMK A01 T00101011  RH  086%=      5-min Rain = 0
KAM3 170612Z 05006KT 01/M01 A3008 RMK A01 T00101010  RH  087%=      5-min Rain = 0
KAM3 170613Z 05006KT 01/M01 A3008 RMK A01 T00091010  RH  087%=      5-min Rain = 0
KAM3 170614Z 05007KT 01/M01 A3008 RMK A01 T00091010  RH  088%=      5-min Rain = 0
KAM3 170615Z 05008KT 01/M01 A3009 RMK A01 T00081009  RH  088%=      5-min Rain = 0
KAM3 170616Z 05008KT 01/M01 A3009 RMK A01 T00081009  RH  089%=      5-min Rain = 0
KAM3 170617Z 05007KT 01/M01 A3009 RMK A01 T00071009  RH  089%=      5-min Rain = 0
KAM3 170618Z 04007KT 01/M01 A3009 RMK A01 T00061009  RH  090%=      5-min Rain = 0
KAM3 170619Z 04007KT 01/M01 A3009 RMK A01 T00061008  RH  090%=      5-min Rain = 0
KAM3 170620Z 04008KT 01/M01 A3009 RMK A01 T00061007  RH  091%=      5-min Rain = 0
KAM3 170621Z 04009KT 01/M01 A3009 RMK A01 T00061006  RH  092%=      5-min Rain = 0
KAM3 170622Z 04010KT 01/M01 A3009 RMK A01 T00051005  RH  093%=      5-min Rain = 0
KAM3 170623Z 04009KT 01/M01 A3009 RMK A01 T00051005  RH  093%=      5-min Rain = 0
KAM3 170624Z 04008KT 01/M00 A3009 RMK A01 T00051002  RH  095%=      5-min Rain = 0
KAM3 170625Z 05007KT 01/00 A3009 RMK A01 T00060000  RH  096%=      5-min Rain = 0
KAM3 170626Z 04007KT 01/00 A3009 RMK A01 T00060001  RH  097%=      5-min Rain = 0
KAM3 170627Z 04005KT 01/00 A3009 RMK A01 T00060001  RH  096%=      5-min Rain = 0
KAM3 170628Z 04005KT 01/00 A3008 RMK A01 T00060000  RH  096%=      5-min Rain = 0
KAM3 170629Z 04004KT 01/00 A3008 RMK A01 T00050000  RH  096%=      5-min Rain = 0
KAM3 170630Z 04003KT 01/00 A3008 RMK A01 T00050000  RH  097%=      5-min Rain = 0
KAM3 170631Z 04003KT 01/00 A3009 RMK A01 T00050001  RH  097%=      5-min Rain = 0
KAM3 170632Z 05004KT 01/00 A3009 RMK A01 T00050002  RH  098%=      5-min Rain = 0
KAM3 170633Z 05004KT 01/00 A3008 RMK A01 T00050004  RH  099%=      5-min Rain = 0
KAM3 170634Z 05004KT 01/01 A3009 RMK A01 T00060006  RH  100%=      5-min Rain = 0
KAM3 170635Z 06005KT 01/01 A3009 RMK A01 T00070006  RH  100%=      5-min Rain = 0
KAM3 170636Z 06006KT 01/00 A3009 RMK A01 T00050003  RH  098%=      5-min Rain = 0
KAM3 170637Z 06007KT 00/M00 A3009 RMK A01 T00021003  RH  097%=      5-min Rain = 0
KAM3 170638Z 06008KT 00/00 A3009 RMK A01 T000000-4  RH  097%=      5-min Rain = 0
KAM3 170639Z 06008KT 00/00 A3009 RMK A01 T00-000-1  RH  099%=      5-min Rain = 0
KAM3 170640Z 06007KT 00/00 A3009 RMK A01 T00-000-1  RH  100%=      5-min Rain = 0
KAM3 170641Z 06007KT 00/00 A3009 RMK A01 T00-000-0  RH  100%=      5-min Rain = 0
KAM3 170642Z 06006KT 00/00 A3008 RMK A01 T000000-0  RH  100%=      5-min Rain = 0
KAM3 170643Z 06006KT 00/00 A3009 RMK A01 T00-000-0  RH  100%=      5-min Rain = 0
KAM3 170644Z 06005KT 00/00 A3009 RMK A01 T000000-0  RH  100%=      5-min Rain = 0
KAM3 170645Z 06005KT 00/00 A3009 RMK A01 T00000000  RH  100%=      5-min Rain = 0
KAM3 170646Z 06004KT 00/00 A3009 RMK A01 T00000000  RH  100%=      5-min Rain = 0
KAM3 170647Z 06004KT 00/00 A3009 RMK A01 T00-000-0  RH  100%=      5-min Rain = 0
KAM3 170648Z 06004KT 00/00 A3009 RMK A01 T00-000-1  RH  100%=      5-min Rain = 0
KAM3 170649Z 07005KT M00/M00 A3009 RMK A01 T10011001  RH  100%=      5-min Rain = 0
KAM3 170650Z 07005KT M00/M00 A3009 RMK A01 T10011002  RH  100%=      5-min Rain = 0
KAM3 170651Z 07006KT M00/M00 A3009 RMK A01 T10011002  RH  100%=      5-min Rain = 0
KAM3 170652Z 06007KT M00/M00 A3009 RMK A01 T10031003  RH  100%=      5-min Rain = 0
KAM3 170653Z 06007KT M00/M00 A3009 RMK A01 T10041004  RH  100%=      5-min Rain = 0
KAM3 170654Z 06007KT M00/M00 A3009 RMK A01 T10041004  RH  100%=      5-min Rain = 0
KAM3 170655Z 05006KT M01/M01 A3009 RMK A01 T10051005  RH  100%=      5-min Rain = 0
KAM3 170656Z 05005KT M01/M01 A3009 RMK A01 T10051005  RH  100%=      5-min Rain = 0
KAM3 170657Z 05004KT M00/M00 A3009 RMK A01 T10031003  RH  100%=      5-min Rain = 0
KAM3 170658Z 05003KT M00/M00 A3009 RMK A01 T10021002  RH  100%=      5-min Rain = 0
KAM3 170659Z 06003KT 00/00 A3009 RMK A01 T00010001  RH  100%=      5-min Rain = 0
KAM3 170700Z 32001KT 00/00 A3009 RMK A01 T00040004  RH  100%=      5-min Rain = 0
KAM3 170701Z 06002KT 01/00 A3009 RMK A01 T00050004  RH  100%=      5-min Rain = 0
KAM3 170702Z 06003KT 01/01 A3009 RMK A01 T00050005  RH  100%=      5-min Rain = 0
KAM3 170703Z 05003KT 01/01 A3009 RMK A01 T00050005  RH  100%=      5-min Rain = 0
KAM3 170704Z 05003KT 01/01 A3009 RMK A01 T00050005  RH  100%=      5-min Rain = 0
KAM3 170705Z 05003KT 01/01 A3009 RMK A01 T00050005  RH  100%=      5-min Rain = 0
KAM3 170706Z 05005KT 01/01 A3009 RMK A01 T00050005  RH  100%=      5-min Rain = 0
KAM3 170707Z 04006KT 01/01 A301 RMK A01 T00050005  RH  100%=      5-min Rain = 0
KAM3 170708Z 04007KT 01/01 A301 RMK A01 T00050005  RH  100%=      5-min Rain = 0
KAM3 170709Z 04008KT 00/00 A301 RMK A01 T00010001  RH  100%=      5-min Rain = 0
KAM3 170710Z 04008KT M00/M00 A301 RMK A01 T10011001  RH  100%=      5-min Rain = 0
KAM3 170711Z 04007KT M00/M00 A301 RMK A01 T10011002  RH  100%=      5-min Rain = 0
KAM3 170712Z 04006KT M00/M00 A301 RMK A01 T10011001  RH  100%=      5-min Rain = 0
KAM3 170713Z 03006KT M00/M00 A301 RMK A01 T10011001  RH  100%=      5-min Rain = 0
KAM3 170714Z 02006KT 00/00 A301 RMK A01 T00-000-0  RH  100%=      5-min Rain = 0
KAM3 170715Z 03007KT 00/00 A301 RMK A01 T00010001  RH  100%=      5-min Rain = 0
KAM3 170716Z 03008KT 00/00 A301 RMK A01 T00010001  RH  100%=      5-min Rain = 0
KAM3 170717Z 03007KT M00/M00 A301 RMK A01 T10011001  RH  100%=      5-min Rain = 0
KAM3 170718Z 03007KT M00/M00 A301 RMK A01 T10011001  RH  100%=      5-min Rain = 0
KAM3 170719Z 03007KT 00/00 A301 RMK A01 T00-000-0  RH  100%=      5-min Rain = 0
KAM3 170720Z 03007KT M00/M00 A301 RMK A01 T10011001  RH  100%=      5-min Rain = 0
KAM3 170721Z 03007KT M00/M00 A301 RMK A01 T10021002  RH  100%=      5-min Rain = 0
KAM3 170722Z 03007KT M00/M00 A301 RMK A01 T10031003  RH  100%=      5-min Rain = 0
KAM3 170723Z 03007KT M00/M00 A301 RMK A01 T10031003  RH  100%=      5-min Rain = 0
KAM3 170724Z 03007KT M00/M00 A301 RMK A01 T10031003  RH  100%=      5-min Rain = 0
KAM3 170725Z 03006KT M00/M00 A301 RMK A01 T10031003  RH  100%=      5-min Rain = 0
KAM3 170726Z 02006KT M00/M00 A301 RMK A01 T10041004  RH  100%=      5-min Rain = 0
KAM3 170727Z 02005KT M00/M00 A301 RMK A01 T10041004  RH  100%=      5-min Rain = 0
KAM3 170728Z 00004KT M00/M00 A301 RMK A01 T10031004  RH  100%=      5-min Rain = 0
KAM3 170729Z 00004KT M00/M00 A301 RMK A01 T10031003  RH  100%=      5-min Rain = 0
KAM3 170730Z 00004KT M00/M00 A301 RMK A01 T10031003  RH  100%=      5-min Rain = 0
KAM3 170731Z 00004KT M00/M00 A301 RMK A01 T10031003  RH  100%=      5-min Rain = 0
KAM3 170732Z 35004KT M00/M00 A3009 RMK A01 T10021003  RH  100%=      5-min Rain = 0
KAM3 170733Z 33004KT M00/M00 A3009 RMK A01 T10021002  RH  100%=      5-min Rain = 0
KAM3 170734Z 32003KT M00/M00 A3009 RMK A01 T10021002  RH  100%=      5-min Rain = 0
KAM3 170735Z 30004KT M00/M00 A3009 RMK A01 T10011001  RH  100%=      5-min Rain = 0
KAM3 170736Z 28004KT M00/M00 A3009 RMK A01 T10011001  RH  100%=      5-min Rain = 0
KAM3 170737Z 28003KT M00/M00 A3009 RMK A01 T10031003  RH  100%=      5-min Rain = 0
KAM3 170738Z 28003KT M01/M01 A3009 RMK A01 T10061006  RH  100%=      5-min Rain = 0
KAM3 170739Z 30003KT M01/M01 A3009 RMK A01 T10091009  RH  100%=      5-min Rain = 0
KAM3 170740Z 31003KT M01/M01 A3009 RMK A01 T10091010  RH  100%=      5-min Rain = 0
KAM3 170741Z 32003KT M01/M01 A3009 RMK A01 T10091009  RH  100%=      5-min Rain = 0
KAM3 170742Z 31003KT M01/M01 A3009 RMK A01 T10081008  RH  100%=      5-min Rain = 0
KAM3 170743Z 30002KT M01/M01 A3009 RMK A01 T10071007  RH  100%=      5-min Rain = 0
KAM3 170744Z 30003KT M01/M01 A3009 RMK A01 T10071007  RH  100%=      5-min Rain = 0
KAM3 170745Z 28003KT M01/M01 A3009 RMK A01 T10081008  RH  100%=      5-min Rain = 0
KAM3 170746Z 27003KT M01/M01 A3009 RMK A01 T10081008  RH  100%=      5-min Rain = 0
KAM3 170747Z 27004KT M01/M01 A3009 RMK A01 T10071007  RH  100%=      5-min Rain = 0
KAM3 170748Z 28004KT M01/M01 A3009 RMK A01 T10061006  RH  100%=      5-min Rain = 0
KAM3 170749Z 28004KT M01/M01 A3009 RMK A01 T10051006  RH  100%=      5-min Rain = 0
KAM3 170750Z 27004KT M01/M01 A3009 RMK A01 T10051006  RH  100%=      5-min Rain = 0
KAM3 170751Z 27004KT M01/M01 A3009 RMK A01 T10061006  RH  100%=      5-min Rain = 0
KAM3 170752Z 26004KT M01/M01 A3009 RMK A01 T10061006  RH  100%=      5-min Rain = 0
KAM3 170753Z 26004KT M01/M01 A3009 RMK A01 T10071007  RH  100%=      5-min Rain = 0
KAM3 170754Z 26005KT M01/M01 A3009 RMK A01 T10081008  RH  100%=      5-min Rain = 0
KAM3 170755Z 26005KT M01/M01 A3009 RMK A01 T10091010  RH  100%=      5-min Rain = 0
KAM3 170756Z 24005KT M01/M01 A3009 RMK A01 T10101011  RH  100%=      5-min Rain = 0
KAM3 170757Z 23005KT M01/M01 A3009 RMK A01 T10121012  RH  100%=      5-min Rain = 0
KAM3 170758Z 23005KT M01/M01 A3009 RMK A01 T10131014  RH  100%=      5-min Rain = 0
KAM3 170759Z 23005KT M02/M02 A3009 RMK A01 T10151015  RH  100%=      5-min Rain = 0
KAM3 170800Z 24005KT M02/M02 A3009 RMK A01 T10171017  RH  100%=      5-min Rain = 0
KAM3 170801Z 24006KT M02/M02 A3009 RMK A01 T10191019  RH  100%=      5-min Rain = 0
KAM3 170802Z 24006KT M02/M02 A3009 RMK A01 T10201020  RH  100%=      5-min Rain = 0
KAM3 170803Z 24007KT M02/M02 A3009 RMK A01 T10211021  RH  100%=      5-min Rain = 0
KAM3 170804Z 24007KT M02/M02 A3009 RMK A01 T10211021  RH  100%=      5-min Rain = 0
KAM3 170805Z 24007KT M02/M02 A3009 RMK A01 T10221022  RH  100%=      5-min Rain = 0
KAM3 170806Z 24007KT M02/M02 A3009 RMK A01 T10221022  RH  100%=      5-min Rain = 0
KAM3 170807Z 24007KT M02/M02 A3009 RMK A01 T10231023  RH  100%=      5-min Rain = 0
KAM3 170808Z 23007KT M02/M02 A3009 RMK A01 T10231024  RH  100%=      5-min Rain = 0
KAM3 170809Z 23007KT M03/M03 A3009 RMK A01 T10251025  RH  100%=      5-min Rain = 0
KAM3 170810Z 25007KT M03/M03 A3009 RMK A01 T10251025  RH  100%=      5-min Rain = 0
KAM3 170811Z 24007KT M03/M03 A3009 RMK A01 T10251025  RH  100%=      5-min Rain = 0
KAM3 170812Z 25006KT M02/M02 A301 RMK A01 T10231023  RH  100%=      5-min Rain = 0
KAM3 170813Z 24006KT M02/M02 A3009 RMK A01 T10201020  RH  100%=      5-min Rain = 0
KAM3 170814Z 25007KT M02/M02 A301 RMK A01 T10171017  RH  100%=      5-min Rain = 0
KAM3 170815Z 24007KT M01/M02 A3009 RMK A01 T10141015  RH  100%=      5-min Rain = 0
KAM3 170816Z 25007KT M01/M01 A301 RMK A01 T10131013  RH  100%=      5-min Rain = 0
KAM3 170817Z 24007KT M01/M01 A3009 RMK A01 T10131013  RH  100%=      5-min Rain = 0
KAM3 170818Z 24007KT M01/M01 A3009 RMK A01 T10131013  RH  100%=      5-min Rain = 0
KAM3 170819Z 24007KT M01/M01 A3009 RMK A01 T10131013  RH  100%=      5-min Rain = 0
KAM3 170820Z 25007KT M01/M01 A3009 RMK A01 T10131013  RH  100%=      5-min Rain = 0
KAM3 170821Z 26007KT M01/M01 A3009 RMK A01 T10141014  RH  100%=      5-min Rain = 0
KAM3 170822Z 26006KT M01/M01 A3009 RMK A01 T10141014  RH  100%=      5-min Rain = 0
KAM3 170823Z 26006KT M01/M01 A3009 RMK A01 T10141014  RH  100%=      5-min Rain = 0
KAM3 170824Z 26006KT M02/M02 A3009 RMK A01 T10151015  RH  100%=      5-min Rain = 0
KAM3 170825Z 26007KT M02/M02 A3009 RMK A01 T10151015  RH  100%=      5-min Rain = 0
KAM3 170826Z 25007KT M02/M02 A3009 RMK A01 T10151015  RH  100%=      5-min Rain = 0
KAM3 170827Z 25007KT M02/M02 A3009 RMK A01 T10151015  RH  100%=      5-min Rain = 0
KAM3 170828Z 25007KT M02/M02 A301 RMK A01 T10151015  RH  100%=      5-min Rain = 0
KAM3 170829Z 25006KT M02/M02 A301 RMK A01 T10151015  RH  100%=      5-min Rain = 0
KAM3 170830Z 26005KT M02/M02 A301 RMK A01 T10151015  RH  100%=      5-min Rain = 0
KAM3 170831Z 26005KT M02/M02 A301 RMK A01 T10151015  RH  100%=      5-min Rain = 0
KAM3 170832Z 28005KT M02/M02 A301 RMK A01 T10151015  RH  100%=      5-min Rain = 0
KAM3 170833Z 30005KT M02/M02 A301 RMK A01 T10151015  RH  100%=      5-min Rain = 0
KAM3 170834Z 31005KT M02/M02 A301 RMK A01 T10151015  RH  100%=      5-min Rain = 0
KAM3 170835Z 34004KT M02/M02 A3011 RMK A01 T10161017  RH  100%=      5-min Rain = 0
KAM3 170836Z 01005KT M02/M02 A3011 RMK A01 T10211021  RH  100%=      5-min Rain = 0
KAM3 170837Z 01006KT M02/M02 A3011 RMK A01 T10231024  RH  100%=      5-min Rain = 0
KAM3 170838Z 36005KT M02/M02 A3011 RMK A01 T10241024  RH  100%=      5-min Rain = 0
KAM3 170839Z 01005KT M02/M02 A3011 RMK A01 T10241024  RH  100%=      5-min Rain = 0
KAM3 170840Z 02006KT M02/M02 A3011 RMK A01 T10241024  RH  100%=      5-min Rain = 0
KAM3 170841Z 02007KT M03/M03 A3011 RMK A01 T10251025  RH  100%=      5-min Rain = 0
KAM3 170842Z 01007KT M02/M03 A3011 RMK A01 T10241025  RH  100%=      5-min Rain = 0
KAM3 170843Z 36006KT M02/M02 A301 RMK A01 T10231024  RH  100%=      5-min Rain = 0
KAM3 170844Z 34005KT M02/M02 A301 RMK A01 T10231023  RH  100%=      5-min Rain = 0
KAM3 170845Z 33005KT M02/M02 A301 RMK A01 T10231023  RH  100%=      5-min Rain = 0
KAM3 170846Z 32006KT M02/M02 A301 RMK A01 T10221022  RH  100%=      5-min Rain = 0
KAM3 170847Z 32006KT M02/M02 A301 RMK A01 T10211021  RH  100%=      5-min Rain = 0
KAM3 170848Z 34006KT M02/M02 A301 RMK A01 T10191020  RH  100%=      5-min Rain = 0
KAM3 170849Z 00007KT M02/M02 A3011 RMK A01 T10201021  RH  100%=      5-min Rain = 0
KAM3 170850Z 02009KT M03/M03 A3011 RMK A01 T10251025  RH  100%=      5-min Rain = 0
KAM3 170851Z 02009KT M03/M03 A3011 RMK A01 T10261026  RH  100%=      5-min Rain = 0
KAM3 170852Z 01007KT M02/M02 A3011 RMK A01 T10241024  RH  100%=      5-min Rain = 0
KAM3 170853Z 36005KT M02/M02 A3011 RMK A01 T10231023  RH  100%=      5-min Rain = 0
KAM3 170854Z 35004KT M02/M02 A3011 RMK A01 T10221022  RH  100%=      5-min Rain = 0
KAM3 170855Z 36004KT M02/M02 A3011 RMK A01 T10201020  RH  100%=      5-min Rain = 0
KAM3 170856Z 00004KT M02/M02 A3011 RMK A01 T10201020  RH  100%=      5-min Rain = 0
KAM3 170857Z 00003KT M02/M02 A3011 RMK A01 T10191020  RH  100%=      5-min Rain = 0
KAM3 170858Z 34003KT M02/M02 A3011 RMK A01 T10191019  RH  100%=      5-min Rain = 0
KAM3 170859Z 33003KT M02/M02 A301 RMK A01 T10181018  RH  100%=      5-min Rain = 0
KAM3 170900Z 33003KT M02/M02 A3011 RMK A01 T10151015  RH  100%=      5-min Rain = 0
KAM3 170901Z 32003KT M01/M01 A3011 RMK A01 T10131013  RH  100%=      5-min Rain = 0
KAM3 170902Z 33004KT M01/M01 A3011 RMK A01 T10121012  RH  100%=      5-min Rain = 0
KAM3 170903Z 33004KT M01/M01 A301 RMK A01 T10121012  RH  100%=      5-min Rain = 0
KAM3 170904Z 33004KT M01/M01 A301 RMK A01 T10121012  RH  100%=      5-min Rain = 0
KAM3 170905Z 33004KT M01/M01 A301 RMK A01 T10111011  RH  100%=      5-min Rain = 0
KAM3 170906Z 33004KT M01/M01 A301 RMK A01 T10101010  RH  100%=      5-min Rain = 0
KAM3 170907Z 33003KT M01/M01 A301 RMK A01 T10101010  RH  100%=      5-min Rain = 0
KAM3 170908Z 34003KT M01/M01 A301 RMK A01 T10091010  RH  100%=      5-min Rain = 0
KAM3 170909Z 34003KT M01/M01 A301 RMK A01 T10091009  RH  100%=      5-min Rain = 0
KAM3 170910Z 34003KT M01/M01 A301 RMK A01 T10091009  RH  100%=      5-min Rain = 0
KAM3 170911Z 33002KT M01/M01 A301 RMK A01 T10091009  RH  100%=      5-min Rain = 0
KAM3 170912Z 30002KT M01/M01 A301 RMK A01 T10091009  RH  100%=      5-min Rain = 0
KAM3 170913Z 31002KT M01/M01 A301 RMK A01 T10091009  RH  100%=      5-min Rain = 0
KAM3 170914Z 31002KT M01/M01 A301 RMK A01 T10091009  RH  100%=      5-min Rain = 0
KAM3 170915Z 30002KT M01/M01 A301 RMK A01 T10081009  RH  100%=      5-min Rain = 0
KAM3 170916Z 34002KT M01/M01 A301 RMK A01 T10081008  RH  100%=      5-min Rain = 0
KAM3 170917Z 01003KT M01/M01 A3011 RMK A01 T10081008  RH  100%=      5-min Rain = 0
KAM3 170918Z 02004KT M01/M01 A3011 RMK A01 T10091009  RH  100%=      5-min Rain = 0
KAM3 170919Z 02004KT M01/M01 A3011 RMK A01 T10101010  RH  100%=      5-min Rain = 0
KAM3 170920Z 02003KT M01/M01 A3011 RMK A01 T10101011  RH  100%=      5-min Rain = 0
KAM3 170921Z 02002KT M01/M01 A3011 RMK A01 T10091010  RH  100%=      5-min Rain = 0
KAM3 170922Z 01002KT M01/M01 A3011 RMK A01 T10091009  RH  100%=      5-min Rain = 0
KAM3 170923Z 01002KT M01/M01 A3011 RMK A01 T10081008  RH  100%=      5-min Rain = 0
KAM3 170924Z 00001KT M01/M01 A3011 RMK A01 T10091009  RH  100%=      5-min Rain = 0
KAM3 170925Z 35000KT M01/M01 A3011 RMK A01 T10141014  RH  100%=      5-min Rain = 0
KAM3 170926Z 35001KT M02/M02 A3011 RMK A01 T10171017  RH  100%=      5-min Rain = 0
KAM3 170927Z 34001KT M02/M02 A3011 RMK A01 T10161016  RH  100%=      5-min Rain = 0
KAM3 170928Z 00002KT M01/M01 A3011 RMK A01 T10141014  RH  100%=      5-min Rain = 0
KAM3 170929Z 01002KT M01/M01 A3011 RMK A01 T10131013  RH  100%=      5-min Rain = 0
KAM3 170930Z 00002KT M01/M01 A3011 RMK A01 T10131013  RH  100%=      5-min Rain = 0
KAM3 170931Z 03002KT M01/M01 A3011 RMK A01 T10131013  RH  100%=      5-min Rain = 0
KAM3 170932Z 03001KT M01/M01 A3011 RMK A01 T10121012  RH  100%=      5-min Rain = 0
KAM3 170933Z 03002KT M01/M01 A3011 RMK A01 T10111012  RH  100%=      5-min Rain = 0
KAM3 170934Z 03002KT M01/M01 A3011 RMK A01 T10111011  RH  100%=      5-min Rain = 0
KAM3 170935Z 03002KT M01/M01 A3011 RMK A01 T10101010  RH  100%=      5-min Rain = 0
KAM3 170936Z 03002KT M01/M01 A3011 RMK A01 T10091009  RH  100%=      5-min Rain = 0
KAM3 170937Z 04003KT M01/M01 A3012 RMK A01 T10071007  RH  100%=      5-min Rain = 0
KAM3 170938Z 04003KT M01/M01 A3012 RMK A01 T10061006  RH  100%=      5-min Rain = 0
KAM3 170939Z 04003KT M00/M00 A3012 RMK A01 T10041004  RH  100%=      5-min Rain = 0
KAM3 170940Z 04003KT M00/M00 A3012 RMK A01 T10031003  RH  100%=      5-min Rain = 0
KAM3 170941Z 04002KT M00/M00 A3011 RMK A01 T10021002  RH  100%=      5-min Rain = 0
KAM3 170942Z 04001KT M00/M00 A3011 RMK A01 T10011001  RH  100%=      5-min Rain = 0
KAM3 170943Z 04001KT 00/00 A3011 RMK A01 T00-000-0  RH  100%=      5-min Rain = 0
KAM3 170944Z 04001KT 00/00 A3011 RMK A01 T00-000-0  RH  100%=      5-min Rain = 0
KAM3 170945Z 04001KT 00/00 A3011 RMK A01 T00-000-0  RH  100%=      5-min Rain = 0
KAM3 170946Z 04000KT 00/00 A3011 RMK A01 T00-000-0  RH  100%=      5-min Rain = 0
KAM3 170947Z 00000KT M00/M00 A3012 RMK A01 T10021003  RH  100%=      5-min Rain = 0
KAM3 170948Z 04001KT M01/M01 A3012 RMK A01 T10071007  RH  100%=      5-min Rain = 0
KAM3 170949Z 09001KT M01/M01 A3012 RMK A01 T10091010  RH  100%=      5-min Rain = 0
KAM3 170950Z 12001KT M01/M01 A3012 RMK A01 T10121012  RH  100%=      5-min Rain = 0
KAM3 170951Z 11002KT M01/M01 A3012 RMK A01 T10131013  RH  100%=      5-min Rain = 0
KAM3 170952Z 11003KT M01/M01 A3012 RMK A01 T10141014  RH  100%=      5-min Rain = 0
KAM3 170953Z 12003KT M01/M01 A3012 RMK A01 T10141014  RH  100%=      5-min Rain = 0
KAM3 170954Z 13004KT M01/M01 A3012 RMK A01 T10141014  RH  100%=      5-min Rain = 0
KAM3 170955Z 14004KT M01/M01 A3012 RMK A01 T10141014  RH  100%=      5-min Rain = 0
KAM3 170956Z 14004KT M01/M01 A3012 RMK A01 T10141014  RH  100%=      5-min Rain = 0
KAM3 170957Z 14004KT M02/M02 A3012 RMK A01 T10151015  RH  100%=      5-min Rain = 0
KAM3 170958Z 14004KT M02/M02 A3012 RMK A01 T10161016  RH  100%=      5-min Rain = 0
KAM3 170959Z 14004KT M02/M02 A3012 RMK A01 T10161016  RH  100%=      5-min Rain = 0
KAM3 171000Z 12004KT M02/M02 A3012 RMK A01 T10181018  RH  100%=      5-min Rain = 0
KAM3 171001Z 13004KT M02/M02 A3012 RMK A01 T10211021  RH  100%=      5-min Rain = 0
KAM3 171002Z 13004KT M02/M02 A3012 RMK A01 T10241024  RH  100%=      5-min Rain = 0
KAM3 171003Z 13004KT M03/M03 A3011 RMK A01 T10261026  RH  100%=      5-min Rain = 0
KAM3 171004Z 12003KT M03/M03 A3012 RMK A01 T10271027  RH  100%=      5-min Rain = 0
KAM3 171005Z 11002KT M03/M03 A3012 RMK A01 T10261027  RH  100%=      5-min Rain = 0
KAM3 171006Z 11002KT M03/M03 A3012 RMK A01 T10271027  RH  100%=      5-min Rain = 0
KAM3 171007Z 11001KT M03/M03 A3011 RMK A01 T10281028  RH  100%=      5-min Rain = 0
KAM3 171008Z 11000KT M03/M03 A3011 RMK A01 T10271027  RH  100%=      5-min Rain = 0
KAM3 171009Z 11000KT M03/M03 A3012 RMK A01 T10261026  RH  100%=      5-min Rain = 0
KAM3 171010Z 11000KT M03/M03 A3012 RMK A01 T10261026  RH  100%=      5-min Rain = 0
KAM3 171011Z 11001KT M03/M03 A3012 RMK A01 T10261026  RH  100%=      5-min Rain = 0
KAM3 171012Z 11002KT M03/M03 A3012 RMK A01 T10281028  RH  100%=      5-min Rain = 0
KAM3 171013Z 12001KT M03/M03 A3012 RMK A01 T10281028  RH  100%=      5-min Rain = 0
KAM3 171014Z 12000KT M02/M02 A3012 RMK A01 T10241024  RH  100%=      5-min Rain = 0
KAM3 171015Z 19001KT M02/M02 A3012 RMK A01 T10221022  RH  100%=      5-min Rain = 0
KAM3 171016Z 19002KT M02/M02 A3012 RMK A01 T10211021  RH  100%=      5-min Rain = 0
KAM3 171017Z 19002KT M02/M02 A3012 RMK A01 T10221022  RH  100%=      5-min Rain = 0
KAM3 171018Z 19002KT M02/M02 A3012 RMK A01 T10241024  RH  100%=      5-min Rain = 0
KAM3 171019Z 18003KT M03/M03 A3012 RMK A01 T10251026  RH  100%=      5-min Rain = 0
KAM3 171020Z 18003KT M03/M03 A3012 RMK A01 T10271027  RH  100%=      5-min Rain = 0
KAM3 171021Z 18003KT M03/M03 A3012 RMK A01 T10271027  RH  100%=      5-min Rain = 0
KAM3 171022Z 18003KT M03/M03 A3012 RMK A01 T10261027  RH  100%=      5-min Rain = 0
KAM3 171023Z 17003KT M03/M03 A3012 RMK A01 T10261026  RH  100%=      5-min Rain = 0
KAM3 171024Z 17003KT M03/M03 A3013 RMK A01 T10261026  RH  100%=      5-min Rain = 0
KAM3 171025Z 16002KT M03/M03 A3013 RMK A01 T10251026  RH  100%=      5-min Rain = 0
KAM3 171026Z 17002KT M02/M02 A3013 RMK A01 T10241024  RH  100%=      5-min Rain = 0
KAM3 171027Z 18003KT M02/M02 A3013 RMK A01 T10221022  RH  100%=      5-min Rain = 0
KAM3 171028Z 18003KT M02/M02 A3013 RMK A01 T10211021  RH  100%=      5-min Rain = 0
KAM3 171029Z 18004KT M02/M02 A3013 RMK A01 T10211021  RH  100%=      5-min Rain = 0
KAM3 171030Z 18003KT M02/M02 A3013 RMK A01 T10221022  RH  100%=      5-min Rain = 0
KAM3 171031Z 18004KT M02/M02 A3013 RMK A01 T10221023  RH  100%=      5-min Rain = 0
KAM3 171032Z 19003KT M02/M02 A3013 RMK A01 T10221022  RH  100%=      5-min Rain = 0
KAM3 171033Z 20004KT M02/M02 A3013 RMK A01 T10201020  RH  100%=      5-min Rain = 0
KAM3 171034Z 20003KT M02/M02 A3013 RMK A01 T10191019  RH  100%=      5-min Rain = 0
KAM3 171035Z 20003KT M02/M02 A3012 RMK A01 T10191019  RH  100%=      5-min Rain = 0
KAM3 171036Z 20003KT M02/M02 A3012 RMK A01 T10181018  RH  100%=      5-min Rain = 0
KAM3 171037Z 20004KT M02/M02 A3012 RMK A01 T10181018  RH  100%=      5-min Rain = 0
KAM3 171038Z 20004KT M02/M02 A3012 RMK A01 T10181018  RH  100%=      5-min Rain = 0
KAM3 171039Z 20004KT M02/M02 A3012 RMK A01 T10181018  RH  100%=      5-min Rain = 0
KAM3 171040Z 20004KT M02/M02 A3012 RMK A01 T10181018  RH  100%=      5-min Rain = 0
KAM3 171041Z 20004KT M02/M02 A3012 RMK A01 T10181018  RH  100%=      5-min Rain = 0
KAM3 171042Z 20004KT M02/M02 A3012 RMK A01 T10191019  RH  100%=      5-min Rain = 0
KAM3 171043Z 20004KT M02/M02 A3012 RMK A01 T10191019  RH  100%=      5-min Rain = 0
KAM3 171044Z 20004KT M02/M02 A3012 RMK A01 T10191019  RH  100%=      5-min Rain = 0
KAM3 171045Z 20003KT M02/M02 A3012 RMK A01 T10191019  RH  100%=      5-min Rain = 0
KAM3 171046Z 20003KT M02/M02 A3012 RMK A01 T10191019  RH  100%=      5-min Rain = 0
KAM3 171047Z 20004KT M02/M02 A3012 RMK A01 T10191019  RH  100%=      5-min Rain = 0
KAM3 171048Z 20004KT M02/M02 A3012 RMK A01 T10191019  RH  100%=      5-min Rain = 0
KAM3 171049Z 20004KT M02/M02 A3012 RMK A01 T10181019  RH  100%=      5-min Rain = 0
KAM3 171050Z 20004KT M02/M02 A3012 RMK A01 T10191019  RH  100%=      5-min Rain = 0
KAM3 171051Z 21004KT M02/M02 A3012 RMK A01 T10201020  RH  100%=      5-min Rain = 0
KAM3 171052Z 21004KT M02/M02 A3012 RMK A01 T10201020  RH  100%=      5-min Rain = 0
KAM3 171053Z 22004KT M02/M02 A3012 RMK A01 T10211021  RH  100%=      5-min Rain = 0
KAM3 171054Z 23004KT M02/M02 A3012 RMK A01 T10211021  RH  100%=      5-min Rain = 0
KAM3 171055Z 24004KT M02/M02 A3012 RMK A01 T10211021  RH  100%=      5-min Rain = 0
KAM3 171056Z 25004KT M02/M02 A3012 RMK A01 T10211021  RH  100%=      5-min Rain = 0
KAM3 171057Z 26005KT M02/M02 A3012 RMK A01 T10201020  RH  100%=      5-min Rain = 0
KAM3 171058Z 26005KT M02/M02 A3012 RMK A01 T10191019  RH  100%=      5-min Rain = 0
KAM3 171059Z 26005KT M02/M02 A3012 RMK A01 T10171018  RH  100%=      5-min Rain = 0
KAM3 171100Z 27005KT M02/M02 A3012 RMK A01 T10161016  RH  100%=      5-min Rain = 0
KAM3 171101Z 27006KT M02/M02 A3012 RMK A01 T10151015  RH  100%=      5-min Rain = 0
KAM3 171102Z 26006KT M01/M01 A3012 RMK A01 T10141014  RH  100%=      5-min Rain = 0
KAM3 171103Z 26005KT M01/M01 A3012 RMK A01 T10131013  RH  100%=      5-min Rain = 0
KAM3 171104Z 26005KT M01/M01 A3012 RMK A01 T10131013  RH  100%=      5-min Rain = 0
KAM3 171105Z 26006KT M01/M01 A3012 RMK A01 T10131013  RH  100%=      5-min Rain = 0
KAM3 171106Z 26006KT M01/M01 A3012 RMK A01 T10131013  RH  100%=      5-min Rain = 0
KAM3 171107Z 26006KT M01/M01 A3012 RMK A01 T10141014  RH  100%=      5-min Rain = 0
KAM3 171108Z 26006KT M01/M01 A3012 RMK A01 T10141014  RH  100%=      5-min Rain = 0
KAM3 171109Z 26006KT M02/M02 A3012 RMK A01 T10151015  RH  100%=      5-min Rain = 0
KAM3 171110Z 26005KT M02/M02 A3012 RMK A01 T10151015  RH  100%=      5-min Rain = 0
KAM3 171111Z 25006KT M02/M02 A3012 RMK A01 T10161016  RH  100%=      5-min Rain = 0
KAM3 171112Z 25006KT M02/M02 A3012 RMK A01 T10171017  RH  100%=      5-min Rain = 0
KAM3 171113Z 25006KT M02/M02 A3012 RMK A01 T10171018  RH  100%=      5-min Rain = 0
KAM3 171114Z 25006KT M02/M02 A3012 RMK A01 T10171018  RH  100%=      5-min Rain = 0
KAM3 171115Z 25006KT M02/M02 A3012 RMK A01 T10171017  RH  100%=      5-min Rain = 0
KAM3 171116Z 25006KT M02/M02 A3012 RMK A01 T10171017  RH  100%=      5-min Rain = 0
KAM3 171117Z 25006KT M02/M02 A3012 RMK A01 T10171017  RH  100%=      5-min Rain = 0
KAM3 171118Z 25006KT M02/M02 A3013 RMK A01 T10171017  RH  100%=      5-min Rain = 0
KAM3 171119Z 25006KT M02/M02 A3013 RMK A01 T10161017  RH  100%=      5-min Rain = 0
KAM3 171120Z 25007KT M02/M02 A3013 RMK A01 T10161016  RH  100%=      5-min Rain = 0
KAM3 171121Z 24007KT M02/M02 A3013 RMK A01 T10171017  RH  100%=      5-min Rain = 0
KAM3 171122Z 24007KT M02/M02 A3013 RMK A01 T10181018  RH  100%=      5-min Rain = 0
KAM3 171123Z 24007KT M02/M02 A3013 RMK A01 T10201020  RH  100%=      5-min Rain = 0
KAM3 171124Z 24007KT M02/M02 A3013 RMK A01 T10211022  RH  099%=      5-min Rain = 0
KAM3 171125Z 24007KT M02/M02 A3013 RMK A01 T10211022  RH  100%=      5-min Rain = 0
KAM3 171126Z 24007KT M02/M02 A3013 RMK A01 T10221022  RH  100%=      5-min Rain = 0
KAM3 171127Z 24007KT M02/M02 A3013 RMK A01 T10221022  RH  100%=      5-min Rain = 0
KAM3 171128Z 24007KT M02/M02 A3013 RMK A01 T10221022  RH  100%=      5-min Rain = 0
KAM3 171129Z 24007KT M02/M02 A3013 RMK A01 T10221022  RH  100%=      5-min Rain = 0
KAM3 171130Z 25007KT M02/M02 A3013 RMK A01 T10211021  RH  100%=      5-min Rain = 0
KAM3 171131Z 25006KT M02/M02 A3013 RMK A01 T10211021  RH  100%=      5-min Rain = 0
KAM3 171132Z 25007KT M02/M02 A3013 RMK A01 T10211021  RH  100%=      5-min Rain = 0
KAM3 171133Z 25007KT M02/M02 A3013 RMK A01 T10201020  RH  100%=      5-min Rain = 0
KAM3 171134Z 24007KT M02/M02 A3013 RMK A01 T10201020  RH  100%=      5-min Rain = 0
KAM3 171135Z 24007KT M02/M02 A3013 RMK A01 T10201020  RH  100%=      5-min Rain = 0
KAM3 171136Z 24007KT M02/M02 A3013 RMK A01 T10201020  RH  100%=      5-min Rain = 0
KAM3 171137Z 24007KT M02/M02 A3013 RMK A01 T10201020  RH  100%=      5-min Rain = 0
KAM3 171138Z 24007KT M02/M02 A3013 RMK A01 T10201020  RH  100%=      5-min Rain = 0
KAM3 171139Z 25007KT M02/M02 A3013 RMK A01 T10201020  RH  100%=      5-min Rain = 0
KAM3 171140Z 25006KT M02/M02 A3013 RMK A01 T10191019  RH  100%=      5-min Rain = 0
KAM3 171141Z 25006KT M02/M02 A3013 RMK A01 T10181018  RH  100%=      5-min Rain = 0
KAM3 171142Z 25006KT M02/M02 A3013 RMK A01 T10161017  RH  100%=      5-min Rain = 0
KAM3 171143Z 25006KT M02/M02 A3013 RMK A01 T10151015  RH  100%=      5-min Rain = 0
KAM3 171144Z 26006KT M01/M01 A3013 RMK A01 T10131013  RH  100%=      5-min Rain = 0
KAM3 171145Z 26006KT M01/M01 A3013 RMK A01 T10101012  RH  099%=      5-min Rain = 0
KAM3 171146Z 26006KT M01/M01 A3012 RMK A01 T10091013  RH  097%=      5-min Rain = 0
KAM3 171147Z 26006KT M01/M01 A3012 RMK A01 T10081014  RH  096%=      5-min Rain = 0
KAM3 171148Z 26006KT M01/M02 A3012 RMK A01 T10071015  RH  095%=      5-min Rain = 0
KAM3 171149Z 26006KT M01/M02 A3012 RMK A01 T10071015  RH  094%=      5-min Rain = 0
KAM3 171150Z 26006KT M01/M02 A3012 RMK A01 T10071016  RH  093%=      5-min Rain = 0
KAM3 171151Z 26006KT M01/M02 A3012 RMK A01 T10061016  RH  093%=      5-min Rain = 0
KAM3 171152Z 26006KT M01/M02 A3012 RMK A01 T10071017  RH  093%=      5-min Rain = 0
KAM3 171153Z 26006KT M01/M02 A3013 RMK A01 T10061017  RH  093%=      5-min Rain = 0
KAM3 171154Z 26006KT M01/M02 A3013 RMK A01 T10071017  RH  093%=      5-min Rain = 0
KAM3 171155Z 26006KT M01/M02 A3013 RMK A01 T10061018  RH  092%=      5-min Rain = 0
KAM3 171156Z 26006KT M01/M02 A3013 RMK A01 T10061018  RH  092%=      5-min Rain = 0
KAM3 171157Z 25006KT M01/M02 A3013 RMK A01 T10071019  RH  092%=      5-min Rain = 0
KAM3 171158Z 25006KT M01/M02 A3013 RMK A01 T10091020  RH  092%=      5-min Rain = 0
KAM3 171159Z 25006KT M01/M02 A3013 RMK A01 T10091020  RH  092%=      5-min Rain = 0
KAM3 171200Z 25006KT M01/M02 A3013 RMK A01 T10101021  RH  093%=      5-min Rain = 0
KAM3 171201Z 25006KT M01/M02 A3013 RMK A01 T10111021  RH  093%=      5-min Rain = 0
KAM3 171202Z 24006KT M01/M02 A3013 RMK A01 T10121022  RH  093%=      5-min Rain = 0
KAM3 171203Z 24005KT M01/M02 A3013 RMK A01 T10131022  RH  093%=      5-min Rain = 0
KAM3 171204Z 24005KT M01/M02 A3013 RMK A01 T10141023  RH  094%=      5-min Rain = 0
KAM3 171205Z 24005KT M02/M02 A3013 RMK A01 T10151023  RH  094%=      5-min Rain = 0
KAM3 171206Z 24005KT M02/M02 A3013 RMK A01 T10151023  RH  094%=      5-min Rain = 0
KAM3 171207Z 24004KT M02/M02 A3013 RMK A01 T10151024  RH  094%=      5-min Rain = 0
KAM3 171208Z 24003KT M02/M02 A3013 RMK A01 T10151023  RH  095%=      5-min Rain = 0
KAM3 171209Z 24003KT M02/M02 A3013 RMK A01 T10151023  RH  095%=      5-min Rain = 0
KAM3 171210Z 25003KT M02/M02 A3013 RMK A01 T10151022  RH  095%=      5-min Rain = 0
KAM3 171211Z 25003KT M01/M02 A3013 RMK A01 T10141021  RH  095%=      5-min Rain = 0
KAM3 171212Z 24003KT M01/M02 A3013 RMK A01 T10141022  RH  094%=      5-min Rain = 0
KAM3 171213Z 24003KT M02/M03 A3013 RMK A01 T10161029  RH  091%=      5-min Rain = 0
KAM3 171214Z 22002KT M02/M04 A3013 RMK A01 T10211037  RH  089%=      5-min Rain = 0
KAM3 171215Z 21001KT M02/M03 A3014 RMK A01 T10231033  RH  092%=      5-min Rain = 0
KAM3 171216Z 23001KT M02/M03 A3014 RMK A01 T10211027  RH  096%=      5-min Rain = 0
KAM3 171217Z 22001KT M02/M02 A3014 RMK A01 T10181022  RH  097%=      5-min Rain = 0
KAM3 171218Z 21002KT M02/M02 A3014 RMK A01 T10161020  RH  097%=      5-min Rain = 0
KAM3 171219Z 20002KT M01/M02 A3014 RMK A01 T10131018  RH  097%=      5-min Rain = 0
KAM3 171220Z 20002KT M01/M02 A3014 RMK A01 T10121018  RH  095%=      5-min Rain = 0
KAM3 171221Z 20002KT M01/M02 A3014 RMK A01 T10101019  RH  094%=      5-min Rain = 0
KAM3 171222Z 21002KT M01/M02 A3014 RMK A01 T10091021  RH  092%=      5-min Rain = 0
KAM3 171223Z 22002KT M01/M02 A3014 RMK A01 T10101024  RH  090%=      5-min Rain = 0
KAM3 171224Z 24002KT M01/M03 A3014 RMK A01 T10131030  RH  088%=      5-min Rain = 0
KAM3 171225Z 25002KT M01/M03 A3014 RMK A01 T10131027  RH  091%=      5-min Rain = 0
KAM3 171226Z 26002KT M01/M02 A3014 RMK A01 T10121023  RH  092%=      5-min Rain = 0
KAM3 171227Z 27003KT M01/M02 A3014 RMK A01 T10101021  RH  093%=      5-min Rain = 0
KAM3 171228Z 27004KT M01/M02 A3014 RMK A01 T10091020  RH  092%=      5-min Rain = 0
KAM3 171229Z 28004KT M01/M02 A3014 RMK A01 T10071020  RH  091%=      5-min Rain = 0
KAM3 171230Z 28004KT M01/M02 A3014 RMK A01 T10061021  RH  089%=      5-min Rain = 0
KAM3 171231Z 28004KT M01/M02 A3014 RMK A01 T10051022  RH  088%=      5-min Rain = 0
KAM3 171232Z 28004KT M00/M02 A3014 RMK A01 T10041022  RH  088%=      5-min Rain = 0
KAM3 171233Z 28004KT M00/M02 A3014 RMK A01 T10031022  RH  087%=      5-min Rain = 0
KAM3 171234Z 29005KT M00/M02 A3014 RMK A01 T10021022  RH  086%=      5-min Rain = 0
KAM3 171235Z 29005KT M00/M02 A3014 RMK A01 T10011023  RH  085%=      5-min Rain = 0
KAM3 171236Z 29005KT M00/M02 A3014 RMK A01 T10011024  RH  085%=      5-min Rain = 0
KAM3 171237Z 28005KT M00/M03 A3014 RMK A01 T10021025  RH  084%=      5-min Rain = 0
KAM3 171238Z 28005KT M00/M03 A3014 RMK A01 T10021025  RH  084%=      5-min Rain = 0
KAM3 171239Z 28005KT M00/M03 A3014 RMK A01 T10031026  RH  085%=      5-min Rain = 0
KAM3 171240Z 28006KT M00/M03 A3014 RMK A01 T10031025  RH  085%=      5-min Rain = 0
KAM3 171241Z 28006KT M00/M03 A3014 RMK A01 T10031025  RH  085%=      5-min Rain = 0
KAM3 171242Z 28006KT M00/M03 A3014 RMK A01 T10041026  RH  085%=      5-min Rain = 0
KAM3 171243Z 28006KT M00/M03 A3014 RMK A01 T10041026  RH  085%=      5-min Rain = 0
KAM3 171244Z 28006KT M01/M03 A3014 RMK A01 T10051026  RH  085%=      5-min Rain = 0
KAM3 171245Z 28006KT M01/M03 A3014 RMK A01 T10051026  RH  086%=      5-min Rain = 0
KAM3 171246Z 28006KT M01/M03 A3014 RMK A01 T10061027  RH  086%=      5-min Rain = 0
KAM3 171247Z 28006KT M01/M03 A3014 RMK A01 T10061026  RH  086%=      5-min Rain = 0
KAM3 171248Z 28006KT M01/M03 A3014 RMK A01 T10061026  RH  086%=      5-min Rain = 0
KAM3 171249Z 28006KT M01/M03 A3014 RMK A01 T10061027  RH  086%=      5-min Rain = 0
KAM3 171250Z 28005KT M01/M03 A3014 RMK A01 T10071027  RH  086%=      5-min Rain = 0
KAM3 171251Z 28005KT M01/M03 A3014 RMK A01 T10071027  RH  087%=      5-min Rain = 0
KAM3 171252Z 28005KT M01/M03 A3015 RMK A01 T10081027  RH  087%=      5-min Rain = 0
KAM3 171253Z 28005KT M01/M03 A3015 RMK A01 T10081026  RH  087%=      5-min Rain = 0
KAM3 171254Z 28005KT M01/M03 A3015 RMK A01 T10081026  RH  087%=      5-min Rain = 0
KAM3 171255Z 29005KT M01/M03 A3015 RMK A01 T10081026  RH  087%=      5-min Rain = 0
KAM3 171256Z 29005KT M01/M03 A3015 RMK A01 T10081026  RH  087%=      5-min Rain = 0
KAM3 171257Z 29004KT M01/M03 A3015 RMK A01 T10081026  RH  087%=      5-min Rain = 0
KAM3 171258Z 29005KT M01/M03 A3015 RMK A01 T10081026  RH  087%=      5-min Rain = 0
KAM3 171259Z 28004KT M01/M03 A3015 RMK A01 T10081026  RH  087%=      5-min Rain = 0
KAM3 171300Z 28005KT M01/M03 A3015 RMK A01 T10081026  RH  087%=      5-min Rain = 0
KAM3 171301Z 28004KT M01/M03 A3015 RMK A01 T10081026  RH  087%=      5-min Rain = 0
KAM3 171302Z 27004KT M01/M03 A3015 RMK A01 T10071025  RH  088%=      5-min Rain = 0
KAM3 171303Z 26005KT M01/M03 A3015 RMK A01 T10071025  RH  087%=      5-min Rain = 0
KAM3 171304Z 26005KT M01/M03 A3015 RMK A01 T10071027  RH  086%=      5-min Rain = 0
KAM3 171305Z 25005KT M01/M03 A3015 RMK A01 T10091030  RH  086%=      5-min Rain = 0
KAM3 171306Z 25005KT M01/M03 A3015 RMK A01 T10101031  RH  086%=      5-min Rain = 0
KAM3 171307Z 25006KT M01/M03 A3015 RMK A01 T10121031  RH  087%=      5-min Rain = 0
KAM3 171308Z 25006KT M01/M03 A3015 RMK A01 T10131031  RH  088%=      5-min Rain = 0
KAM3 171309Z 26006KT M01/M03 A3015 RMK A01 T10141030  RH  088%=      5-min Rain = 0
KAM3 171310Z 26006KT M01/M03 A3014 RMK A01 T10141030  RH  089%=      5-min Rain = 0
KAM3 171311Z 26006KT M01/M03 A3014 RMK A01 T10141029  RH  090%=      5-min Rain = 0
KAM3 171312Z 27006KT M01/M03 A3014 RMK A01 T10131027  RH  090%=      5-min Rain = 0
KAM3 171313Z 27006KT M01/M03 A3014 RMK A01 T10111026  RH  090%=      5-min Rain = 0
KAM3 171314Z 27005KT M01/M03 A3014 RMK A01 T10101025  RH  089%=      5-min Rain = 0
KAM3 171315Z 27005KT M01/M03 A3014 RMK A01 T10081025  RH  088%=      5-min Rain = 0
KAM3 171316Z 28005KT M01/M03 A3014 RMK A01 T10061025  RH  087%=      5-min Rain = 0
KAM3 171317Z 28005KT M01/M03 A3014 RMK A01 T10061026  RH  086%=      5-min Rain = 0
KAM3 171318Z 28006KT M01/M03 A3014 RMK A01 T10051027  RH  085%=      5-min Rain = 0
KAM3 171319Z 28006KT M01/M03 A3014 RMK A01 T10051027  RH  085%=      5-min Rain = 0
KAM3 171320Z 28005KT M01/M03 A3014 RMK A01 T10051028  RH  085%=      5-min Rain = 0
KAM3 171321Z 28005KT M01/M03 A3014 RMK A01 T10061028  RH  085%=      5-min Rain = 0
KAM3 171322Z 27005KT M01/M03 A3014 RMK A01 T10061028  RH  085%=      5-min Rain = 0
KAM3 171323Z 27005KT M01/M03 A3014 RMK A01 T10061029  RH  085%=      5-min Rain = 0
KAM3 171324Z 27005KT M01/M03 A3015 RMK A01 T10071029  RH  085%=      5-min Rain = 0
KAM3 171325Z 27004KT M01/M03 A3015 RMK A01 T10061029  RH  085%=      5-min Rain = 0
KAM3 171326Z 27004KT M01/M03 A3015 RMK A01 T10061029  RH  085%=      5-min Rain = 0
KAM3 171327Z 28004KT M01/M03 A3015 RMK A01 T10061029  RH  085%=      5-min Rain = 0
KAM3 171328Z 28004KT M01/M03 A3015 RMK A01 T10061029  RH  085%=      5-min Rain = 0
KAM3 171329Z 28004KT M01/M03 A3015 RMK A01 T10061029  RH  085%=      5-min Rain = 0
KAM3 171330Z 28003KT M01/M03 A3015 RMK A01 T10051028  RH  084%=      5-min Rain = 0
KAM3 171331Z 27003KT M01/M03 A3015 RMK A01 T10051029  RH  084%=      5-min Rain = 0
KAM3 171332Z 26003KT M01/M03 A3015 RMK A01 T10051029  RH  084%=      5-min Rain = 0
KAM3 171333Z 25002KT M01/M03 A3015 RMK A01 T10061031  RH  083%=      5-min Rain = 0
KAM3 171334Z 24001KT M01/M04 A3015 RMK A01 T10101036  RH  082%=      5-min Rain = 0
KAM3 171335Z 26002KT M01/M04 A3015 RMK A01 T10121035  RH  085%=      5-min Rain = 0
KAM3 171336Z 26002KT M01/M03 A3015 RMK A01 T10111030  RH  087%=      5-min Rain = 0
KAM3 171337Z 26003KT M01/M03 A3015 RMK A01 T10091028  RH  087%=      5-min Rain = 0
KAM3 171338Z 26003KT M01/M03 A3015 RMK A01 T10071028  RH  086%=      5-min Rain = 0
KAM3 171339Z 24003KT M01/M03 A3015 RMK A01 T10061028  RH  085%=      5-min Rain = 0
KAM3 171340Z 21003KT M01/M03 A3015 RMK A01 T10051030  RH  084%=      5-min Rain = 0
KAM3 171341Z 20003KT M01/M04 A3015 RMK A01 T10101039  RH  081%=      5-min Rain = 0
KAM3 171342Z 20004KT M02/M04 A3015 RMK A01 T10171044  RH  082%=      5-min Rain = 0
KAM3 171343Z 20004KT M02/M04 A3016 RMK A01 T10211043  RH  085%=      5-min Rain = 0
KAM3 171344Z 20004KT M02/M04 A3016 RMK A01 T10221039  RH  088%=      5-min Rain = 0
KAM3 171345Z 20004KT M02/M04 A3016 RMK A01 T10221037  RH  089%=      5-min Rain = 0
KAM3 171346Z 19004KT M02/M04 A3016 RMK A01 T10231038  RH  090%=      5-min Rain = 0
KAM3 171347Z 19004KT M03/M04 A3016 RMK A01 T10251040  RH  089%=      5-min Rain = 0
KAM3 171348Z 20003KT M03/M04 A3016 RMK A01 T10271042  RH  090%=      5-min Rain = 0
KAM3 171349Z 20004KT M03/M04 A3016 RMK A01 T10281041  RH  091%=      5-min Rain = 0
KAM3 171350Z 21004KT M03/M04 A3015 RMK A01 T10271037  RH  093%=      5-min Rain = 0
KAM3 171351Z 22004KT M03/M03 A3015 RMK A01 T10251034  RH  094%=      5-min Rain = 0
KAM3 171352Z 22003KT M02/M03 A3015 RMK A01 T10231033  RH  093%=      5-min Rain = 0
KAM3 171353Z 22003KT M02/M03 A3015 RMK A01 T10221032  RH  093%=      5-min Rain = 0
KAM3 171354Z 22003KT M02/M03 A3015 RMK A01 T10191030  RH  093%=      5-min Rain = 0
KAM3 171355Z 23003KT M02/M03 A3015 RMK A01 T10161026  RH  093%=      5-min Rain = 0
KAM3 171356Z 24003KT M01/M03 A3015 RMK A01 T10121025  RH  091%=      5-min Rain = 0
KAM3 171357Z 24003KT M01/M03 A3015 RMK A01 T10091025  RH  089%=      5-min Rain = 0
KAM3 171358Z 24003KT M01/M03 A3015 RMK A01 T10061026  RH  086%=      5-min Rain = 0
KAM3 171359Z 24003KT M00/M03 A3015 RMK A01 T10041028  RH  084%=      5-min Rain = 0
KAM3 171400Z 22003KT M00/M03 A3015 RMK A01 T10031028  RH  083%=      5-min Rain = 0
KAM3 171401Z 20003KT M00/M03 A3015 RMK A01 T10021030  RH  081%=      5-min Rain = 0
KAM3 171402Z 17003KT M00/M03 A3016 RMK A01 T10031032  RH  080%=      5-min Rain = 0
KAM3 171403Z 16004KT M01/M04 A3016 RMK A01 T10081041  RH  078%=      5-min Rain = 0
KAM3 171404Z 17005KT M02/M05 A3016 RMK A01 T10171050  RH  078%=      5-min Rain = 0
KAM3 171405Z 17005KT M02/M05 A3016 RMK A01 T10201046  RH  083%=      5-min Rain = 0
KAM3 171406Z 18004KT M02/M04 A3016 RMK A01 T10201040  RH  087%=      5-min Rain = 0
KAM3 171407Z 18004KT M02/M04 A3016 RMK A01 T10191037  RH  088%=      5-min Rain = 0
KAM3 171408Z 18004KT M02/M04 A3016 RMK A01 T10191037  RH  088%=      5-min Rain = 0
KAM3 171409Z 18004KT M02/M04 A3016 RMK A01 T10191037  RH  087%=      5-min Rain = 0
KAM3 171410Z 18003KT M02/M04 A3016 RMK A01 T10191038  RH  087%=      5-min Rain = 0
KAM3 171411Z 18003KT M02/M04 A3016 RMK A01 T10201038  RH  087%=      5-min Rain = 0
KAM3 171412Z 19002KT M02/M04 A3016 RMK A01 T10191037  RH  088%=      5-min Rain = 0
KAM3 171413Z 19001KT M02/M04 A3016 RMK A01 T10201037  RH  088%=      5-min Rain = 0
KAM3 171414Z 19001KT M02/M04 A3016 RMK A01 T10211039  RH  087%=      5-min Rain = 0
KAM3 171415Z 19000KT M02/M04 A3016 RMK A01 T10231043  RH  086%=      5-min Rain = 0
KAM3 171416Z 19001KT M02/M04 A3016 RMK A01 T10241043  RH  087%=      5-min Rain = 0
KAM3 171417Z 19001KT M02/M04 A3016 RMK A01 T10231038  RH  090%=      5-min Rain = 0
KAM3 171418Z 23001KT M02/M03 A3016 RMK A01 T10211034  RH  091%=      5-min Rain = 0
KAM3 171419Z 24002KT M02/M03 A3016 RMK A01 T10181031  RH  091%=      5-min Rain = 0
KAM3 171420Z 25002KT M02/M03 A3016 RMK A01 T10151027  RH  091%=      5-min Rain = 0
KAM3 171421Z 26002KT M01/M03 A3016 RMK A01 T10111026  RH  090%=      5-min Rain = 0
KAM3 171422Z 27002KT M01/M03 A3016 RMK A01 T10081025  RH  088%=      5-min Rain = 0
KAM3 171423Z 27002KT M01/M03 A3016 RMK A01 T10051025  RH  086%=      5-min Rain = 0
KAM3 171424Z 27002KT M00/M03 A3015 RMK A01 T10021026  RH  084%=      5-min Rain = 0
KAM3 171425Z 27003KT 00/M03 A3015 RMK A01 T00011026  RH  082%=      5-min Rain = 0
KAM3 171426Z 28003KT 00/M03 A3016 RMK A01 T00041026  RH  080%=      5-min Rain = 0
KAM3 171427Z 28003KT 01/M03 A3016 RMK A01 T00071027  RH  078%=      5-min Rain = 0
KAM3 171428Z 29004KT 01/M03 A3016 RMK A01 T00081027  RH  077%=      5-min Rain = 0
KAM3 171429Z 30003KT 01/M03 A3016 RMK A01 T00091027  RH  077%=      5-min Rain = 0
KAM3 171430Z 31003KT 01/M03 A3016 RMK A01 T00101026  RH  077%=      5-min Rain = 0
KAM3 171431Z 32003KT 01/M03 A3016 RMK A01 T00111026  RH  077%=      5-min Rain = 0
KAM3 171432Z 32003KT 01/M03 A3016 RMK A01 T00111025  RH  077%=      5-min Rain = 0
KAM3 171433Z 32003KT 01/M03 A3016 RMK A01 T00111025  RH  077%=      5-min Rain = 0
KAM3 171434Z 32003KT 01/M02 A3016 RMK A01 T00111024  RH  077%=      5-min Rain = 0
KAM3 171435Z 32002KT 01/M02 A3016 RMK A01 T00111023  RH  078%=      5-min Rain = 0
KAM3 171436Z 31002KT 01/M02 A3015 RMK A01 T00121022  RH  078%=      5-min Rain = 0
KAM3 171437Z 30001KT 01/M02 A3015 RMK A01 T00131022  RH  078%=      5-min Rain = 0
KAM3 171438Z 30001KT 01/M02 A3016 RMK A01 T00131020  RH  078%=      5-min Rain = 0
KAM3 171439Z 28001KT 01/M02 A3016 RMK A01 T00141019  RH  079%=      5-min Rain = 0
KAM3 171440Z 28001KT 01/M02 A3016 RMK A01 T00141017  RH  079%=      5-min Rain = 0
KAM3 171441Z 00000KT 02/M01 A3016 RMK A01 T00161014  RH  080%=      5-min Rain = 0
KAM3 171442Z 00000KT 02/M02 A3016 RMK A01 T00181015  RH  079%=      5-min Rain = 0
KAM3 171443Z 00000KT 02/M02 A3016 RMK A01 T00201016  RH  077%=      5-min Rain = 0
KAM3 171444Z 00000KT 02/M02 A3016 RMK A01 T00201018  RH  076%=      5-min Rain = 0
KAM3 171445Z 24000KT 02/M02 A3016 RMK A01 T00201020  RH  075%=      5-min Rain = 0
KAM3 171446Z 23001KT 02/M02 A3016 RMK A01 T00191022  RH  074%=      5-min Rain = 0
KAM3 171447Z 23002KT 02/M02 A3016 RMK A01 T00181023  RH  074%=      5-min Rain = 0
KAM3 171448Z 22002KT 02/M02 A3016 RMK A01 T00171022  RH  075%=      5-min Rain = 0
KAM3 171449Z 22002KT 02/M02 A3016 RMK A01 T00171020  RH  077%=      5-min Rain = 0
KAM3 171450Z 22001KT 02/M02 A3016 RMK A01 T00161018  RH  078%=      5-min Rain = 0
KAM3 171451Z 22002KT 02/M02 A3016 RMK A01 T00161017  RH  079%=      5-min Rain = 0
KAM3 171452Z 21002KT 02/M02 A3016 RMK A01 T00161015  RH  080%=      5-min Rain = 0
KAM3 171453Z 19002KT 02/M02 A3016 RMK A01 T00161015  RH  080%=      5-min Rain = 0
KAM3 171454Z 20003KT 02/M01 A3016 RMK A01 T00171013  RH  081%=      5-min Rain = 0
KAM3 171455Z 20003KT 02/M01 A3016 RMK A01 T00171010  RH  083%=      5-min Rain = 0
KAM3 171456Z 21003KT 02/M01 A3016 RMK A01 T00171009  RH  083%=      5-min Rain = 0
KAM3 171457Z 22003KT 02/M01 A3016 RMK A01 T00171009  RH  083%=      5-min Rain = 0
KAM3 171458Z 23003KT 02/M01 A3016 RMK A01 T00161011  RH  082%=      5-min Rain = 0
KAM3 171459Z 24003KT 02/M01 A3016 RMK A01 T00161011  RH  082%=      5-min Rain = 0
KAM3 171500Z 24003KT 02/M01 A3016 RMK A01 T00171013  RH  081%=      5-min Rain = 0
KAM3 171501Z 24004KT 02/M02 A3016 RMK A01 T00171016  RH  079%=      5-min Rain = 0
KAM3 171502Z 23004KT 02/M02 A3016 RMK A01 T00171016  RH  079%=      5-min Rain = 0
KAM3 171503Z 23004KT 02/M01 A3016 RMK A01 T00181012  RH  081%=      5-min Rain = 0
KAM3 171504Z 24004KT 02/M01 A3016 RMK A01 T00181011  RH  081%=      5-min Rain = 0
KAM3 171505Z 24004KT 02/M01 A3017 RMK A01 T00191006  RH  084%=      5-min Rain = 0
KAM3 171506Z 24004KT 02/M00 A3017 RMK A01 T00201004  RH  084%=      5-min Rain = 0
KAM3 171507Z 24004KT 02/M00 A3017 RMK A01 T00201004  RH  084%=      5-min Rain = 0
KAM3 171508Z 24004KT 02/M00 A3017 RMK A01 T00211002  RH  085%=      5-min Rain = 0
KAM3 171509Z 25003KT 02/M01 A3017 RMK A01 T00221005  RH  082%=      5-min Rain = 0
KAM3 171510Z 25004KT 02/M00 A3017 RMK A01 T00231004  RH  082%=      5-min Rain = 0
KAM3 171511Z 24004KT 02/M01 A3017 RMK A01 T00241005  RH  081%=      5-min Rain = 0
KAM3 171512Z 24004KT 02/M01 A3017 RMK A01 T00241009  RH  079%=      5-min Rain = 0
KAM3 171513Z 23004KT 03/M01 A3017 RMK A01 T00251010  RH  078%=      5-min Rain = 0
KAM3 171514Z 21004KT 03/M00 A3017 RMK A01 T00261004  RH  081%=      5-min Rain = 0
KAM3 171515Z 22005KT 03/M01 A3017 RMK A01 T00261005  RH  079%=      5-min Rain = 0
KAM3 171516Z 22004KT 03/M01 A3018 RMK A01 T00261005  RH  080%=      5-min Rain = 0
KAM3 171517Z 22004KT 03/M00 A3018 RMK A01 T00271004  RH  080%=      5-min Rain = 0
KAM3 171518Z 21004KT 03/M00 A3018 RMK A01 T00271004  RH  080%=      5-min Rain = 0
KAM3 171519Z 22003KT 03/M00 A3018 RMK A01 T00281004  RH  079%=      5-min Rain = 0
KAM3 171520Z 22004KT 03/00 A3018 RMK A01 T002900-0  RH  081%=      5-min Rain = 0
KAM3 171521Z 21004KT 03/00 A3018 RMK A01 T00300000  RH  081%=      5-min Rain = 0
KAM3 171522Z 20004KT 03/00 A3018 RMK A01 T00320004  RH  082%=      5-min Rain = 0
KAM3 171523Z 20005KT 03/01 A3018 RMK A01 T00330007  RH  083%=      5-min Rain = 0
KAM3 171524Z 19005KT 03/01 A3018 RMK A01 T00340006  RH  082%=      5-min Rain = 0
KAM3 171525Z 20005KT 03/00 A3018 RMK A01 T00340004  RH  081%=      5-min Rain = 0
KAM3 171526Z 21005KT 04/00 A3018 RMK A01 T00350001  RH  079%=      5-min Rain = 0
KAM3 171527Z 21004KT 04/00 A3018 RMK A01 T00350001  RH  078%=      5-min Rain = 0
KAM3 171528Z 21004KT 04/00 A3018 RMK A01 T00360003  RH  079%=      5-min Rain = 0
KAM3 171529Z 22005KT 04/00 A3018 RMK A01 T00370003  RH  079%=      5-min Rain = 0
KAM3 171530Z 21006KT 04/M00 A3018 RMK A01 T00381001  RH  076%=      5-min Rain = 0
KAM3 171531Z 21007KT 04/M00 A3018 RMK A01 T00381002  RH  075%=      5-min Rain = 0
KAM3 171532Z 21006KT 04/M00 A3018 RMK A01 T00391001  RH  075%=      5-min Rain = 0
KAM3 171533Z 21006KT 04/00 A3018 RMK A01 T00400002  RH  076%=      5-min Rain = 0
KAM3 171534Z 22006KT 04/00 A3019 RMK A01 T00420003  RH  076%=      5-min Rain = 0
KAM3 171535Z 23007KT 04/00 A3019 RMK A01 T00430000  RH  074%=      5-min Rain = 0
KAM3 171536Z 22007KT 04/M00 A3019 RMK A01 T00441003  RH  072%=      5-min Rain = 0
KAM3 171537Z 21007KT 05/00 A3019 RMK A01 T004500-0  RH  073%=      5-min Rain = 0
KAM3 171538Z 22008KT 05/M00 A3019 RMK A01 T00451003  RH  071%=      5-min Rain = 0
KAM3 171539Z 22007KT 05/M00 A3019 RMK A01 T00461003  RH  071%=      5-min Rain = 0
KAM3 171540Z 23008KT 05/M00 A3019 RMK A01 T00471002  RH  070%=      5-min Rain = 0
KAM3 171541Z 22007KT 05/M00 A3019 RMK A01 T00481004  RH  069%=      5-min Rain = 0
KAM3 171542Z 23007KT 05/M00 A3019 RMK A01 T00491004  RH  068%=      5-min Rain = 0
KAM3 171543Z 22007KT 05/M01 A3019 RMK A01 T00501005  RH  068%=      5-min Rain = 0
KAM3 171544Z 23007KT 05/M01 A3019 RMK A01 T00511007  RH  066%=      5-min Rain = 0
KAM3 171545Z 23008KT 05/M01 A3019 RMK A01 T00511009  RH  065%=      5-min Rain = 0
KAM3 171546Z 23007KT 05/M01 A302 RMK A01 T00511009  RH  065%=      5-min Rain = 0
KAM3 171547Z 23008KT 05/M01 A302 RMK A01 T00531009  RH  065%=      5-min Rain = 0
KAM3 171548Z 23007KT 05/M01 A3019 RMK A01 T00541010  RH  063%=      5-min Rain = 0
KAM3 171549Z 23006KT 06/M01 A3019 RMK A01 T00551011  RH  063%=      5-min Rain = 0
KAM3 171550Z 23005KT 06/M01 A3019 RMK A01 T00561011  RH  062%=      5-min Rain = 0
KAM3 171551Z 23005KT 06/M01 A3019 RMK A01 T00571010  RH  062%=      5-min Rain = 0
KAM3 171552Z 25005KT 06/M01 A3019 RMK A01 T00581009  RH  062%=      5-min Rain = 0
KAM3 171553Z 25005KT 06/M01 A3019 RMK A01 T00601007  RH  062%=      5-min Rain = 0
KAM3 171554Z 24006KT 06/M01 A3019 RMK A01 T00611009  RH  061%=      5-min Rain = 0
KAM3 171555Z 23006KT 06/M01 A3019 RMK A01 T00621008  RH  061%=      5-min Rain = 0
KAM3 171556Z 24006KT 06/M01 A3019 RMK A01 T00631008  RH  060%=      5-min Rain = 0
KAM3 171557Z 24006KT 06/M01 A3019 RMK A01 T00641010  RH  059%=      5-min Rain = 0
KAM3 171558Z 23007KT 06/M01 A302 RMK A01 T00641009  RH  059%=      5-min Rain = 0
KAM3 171559Z 23004KT 07/M01 A302 RMK A01 T00651010  RH  059%=      5-min Rain = 0
KAM3 171600Z 23005KT 07/M01 A302 RMK A01 T00661007  RH  060%=      5-min Rain = 0
KAM3 171601Z 24005KT 07/M01 A302 RMK A01 T00671009  RH  058%=      5-min Rain = 0
KAM3 171602Z 23005KT 07/M01 A302 RMK A01 T00681008  RH  058%=      5-min Rain = 0
KAM3 171603Z 23004KT 07/M01 A302 RMK A01 T00691007  RH  058%=      5-min Rain = 0
KAM3 171604Z 23004KT 07/M01 A302 RMK A01 T00711008  RH  057%=      5-min Rain = 0
KAM3 171605Z 24004KT 07/M01 A302 RMK A01 T00711008  RH  057%=      5-min Rain = 0
KAM3 171606Z 26006KT 07/M01 A302 RMK A01 T00721008  RH  057%=      5-min Rain = 0
KAM3 171607Z 26007KT 07/M01 A302 RMK A01 T00731009  RH  056%=      5-min Rain = 0
KAM3 171608Z 25007KT 07/M01 A302 RMK A01 T00741010  RH  055%=      5-min Rain = 0
KAM3 171609Z 25008KT 08/M01 A302 RMK A01 T00751011  RH  054%=      5-min Rain = 0
KAM3 171610Z 24007KT 08/M01 A302 RMK A01 T00771012  RH  053%=      5-min Rain = 0
KAM3 171611Z 24006KT 08/M01 A302 RMK A01 T00781013  RH  053%=      5-min Rain = 0
KAM3 171612Z 24006KT 08/M01 A302 RMK A01 T00791011  RH  053%=      5-min Rain = 0
KAM3 171613Z 24007KT 08/M01 A302 RMK A01 T00801012  RH  052%=      5-min Rain = 0
KAM3 171614Z 25006KT 08/M02 A302 RMK A01 T00811015  RH  051%=      5-min Rain = 0
KAM3 171615Z 25005KT 08/M02 A302 RMK A01 T00821016  RH  050%=      5-min Rain = 0
KAM3 171616Z 25005KT 09/M02 A302 RMK A01 T00851016  RH  049%=      5-min Rain = 0
KAM3 171617Z 25005KT 09/M02 A302 RMK A01 T00851018  RH  048%=      5-min Rain = 0
KAM3 171618Z 26005KT 09/M02 A302 RMK A01 T00851019  RH  048%=      5-min Rain = 0
KAM3 171619Z 25006KT 09/M02 A302 RMK A01 T00851019  RH  048%=      5-min Rain = 0
KAM3 171620Z 26004KT 09/M02 A302 RMK A01 T00861019  RH  048%=      5-min Rain = 0
KAM3 171621Z 25004KT 09/M02 A302 RMK A01 T00861020  RH  047%=      5-min Rain = 0
KAM3 171622Z 27005KT 09/M02 A302 RMK A01 T00871020  RH  047%=      5-min Rain = 0
KAM3 171623Z 28006KT 09/M02 A302 RMK A01 T00881019  RH  047%=      5-min Rain = 0
KAM3 171624Z 28005KT 09/M02 A302 RMK A01 T00881021  RH  046%=      5-min Rain = 0
KAM3 171625Z 28005KT 09/M02 A302 RMK A01 T00871021  RH  047%=      5-min Rain = 0
KAM3 171626Z 28004KT 09/M02 A302 RMK A01 T00871020  RH  047%=      5-min Rain = 0
KAM3 171627Z 29005KT 09/M02 A302 RMK A01 T00891018  RH  047%=      5-min Rain = 0
KAM3 171628Z 28005KT 09/M02 A302 RMK A01 T00911020  RH  046%=      5-min Rain = 0
KAM3 171629Z 26006KT 09/M02 A302 RMK A01 T00901022  RH  045%=      5-min Rain = 0
KAM3 171630Z 27004KT 09/M02 A302 RMK A01 T00901022  RH  046%=      5-min Rain = 0
KAM3 171631Z 27004KT 09/M02 A302 RMK A01 T00901017  RH  047%=      5-min Rain = 0
KAM3 171632Z 24006KT 09/M02 A302 RMK A01 T00921015  RH  047%=      5-min Rain = 0
KAM3 171633Z 26004KT 09/M02 A302 RMK A01 T00931018  RH  046%=      5-min Rain = 0
KAM3 171634Z 26004KT 09/M02 A302 RMK A01 T00941017  RH  046%=      5-min Rain = 0
KAM3 171635Z 26005KT 09/M02 A302 RMK A01 T00931017  RH  046%=      5-min Rain = 0
KAM3 171636Z 26004KT 09/M01 A302 RMK A01 T00941014  RH  047%=      5-min Rain = 0
KAM3 171637Z 28004KT 10/M02 A302 RMK A01 T00951015  RH  046%=      5-min Rain = 0
KAM3 171638Z 29005KT 09/M01 A302 RMK A01 T00941012  RH  048%=      5-min Rain = 0
KAM3 171639Z 29005KT 09/M01 A302 RMK A01 T00921011  RH  048%=      5-min Rain = 0
KAM3 171640Z 29003KT 09/M01 A302 RMK A01 T00911013  RH  048%=      5-min Rain = 0
KAM3 171641Z 29004KT 09/M01 A302 RMK A01 T00901013  RH  048%=      5-min Rain = 0
KAM3 171642Z 29004KT 09/M01 A302 RMK A01 T00911011  RH  049%=      5-min Rain = 0
KAM3 171643Z 29004KT 09/M01 A302 RMK A01 T00921007  RH  050%=      5-min Rain = 0
KAM3 171644Z 28004KT 09/M01 A302 RMK A01 T00931012  RH  048%=      5-min Rain = 0
KAM3 171645Z 28002KT 09/M01 A302 RMK A01 T00941011  RH  048%=      5-min Rain = 0
KAM3 171646Z 28003KT 10/M01 A302 RMK A01 T00951008  RH  049%=      5-min Rain = 0
KAM3 171647Z 28005KT 10/M01 A302 RMK A01 T00961009  RH  048%=      5-min Rain = 0
KAM3 171648Z 28005KT 10/M01 A302 RMK A01 T00961012  RH  047%=      5-min Rain = 0
KAM3 171649Z 27005KT 10/M02 A302 RMK A01 T00971015  RH  045%=      5-min Rain = 0
KAM3 171650Z 27005KT 10/M02 A302 RMK A01 T00971017  RH  045%=      5-min Rain = 0
KAM3 171651Z 27003KT 10/M01 A302 RMK A01 T00971014  RH  046%=      5-min Rain = 0
KAM3 171652Z 25003KT 10/M02 A302 RMK A01 T00981016  RH  045%=      5-min Rain = 0
KAM3 171653Z 28004KT 10/M02 A302 RMK A01 T00991018  RH  044%=      5-min Rain = 0
KAM3 171654Z 28003KT 10/M01 A302 RMK A01 T00991013  RH  046%=      5-min Rain = 0
KAM3 171655Z 27003KT 10/M02 A302 RMK A01 T01001015  RH  045%=      5-min Rain = 0
KAM3 171656Z 24003KT 10/M02 A302 RMK A01 T01021016  RH  044%=      5-min Rain = 0
KAM3 171657Z 26005KT 10/M02 A302 RMK A01 T01041015  RH  043%=      5-min Rain = 0
KAM3 171658Z 25005KT 11/M02 A302 RMK A01 T01051016  RH  043%=      5-min Rain = 0
KAM3 171659Z 27003KT 11/M02 A302 RMK A01 T01051016  RH  043%=      5-min Rain = 0
KAM3 171700Z 28005KT 11/M02 A302 RMK A01 T01051016  RH  043%=      5-min Rain = 0
KAM3 171701Z 28005KT 11/M02 A302 RMK A01 T01051015  RH  043%=      5-min Rain = 0
KAM3 171702Z 26004KT 11/M02 A302 RMK A01 T01051015  RH  043%=      5-min Rain = 0
KAM3 171703Z 27003KT 11/M01 A302 RMK A01 T01061014  RH  043%=      5-min Rain = 0
KAM3 171704Z 27005KT 11/M01 A302 RMK A01 T01071013  RH  043%=      5-min Rain = 0
KAM3 171705Z 25003KT 11/M02 A302 RMK A01 T01081015  RH  042%=      5-min Rain = 0
KAM3 171706Z 25003KT 11/M01 A302 RMK A01 T01071014  RH  043%=      5-min Rain = 0
KAM3 171707Z 26004KT 11/M02 A302 RMK A01 T01071015  RH  043%=      5-min Rain = 0
KAM3 171708Z 26003KT 11/M01 A302 RMK A01 T01081013  RH  043%=      5-min Rain = 0
KAM3 171709Z 26004KT 11/M01 A302 RMK A01 T01101011  RH  043%=      5-min Rain = 0
KAM3 171710Z 24005KT 11/M01 A302 RMK A01 T01111012  RH  042%=      5-min Rain = 0
KAM3 171711Z 26007KT 11/M01 A3021 RMK A01 T01121011  RH  042%=      5-min Rain = 0
KAM3 171712Z 27006KT 11/M01 A3021 RMK A01 T01131012  RH  042%=      5-min Rain = 0
KAM3 171713Z 28003KT 11/M01 A3021 RMK A01 T01121014  RH  041%=      5-min Rain = 0
KAM3 171714Z 23006KT 11/M01 A302 RMK A01 T01121013  RH  042%=      5-min Rain = 0
KAM3 171715Z 22007KT 11/M01 A302 RMK A01 T01131014  RH  041%=      5-min Rain = 0
KAM3 171716Z 19004KT 11/M02 A302 RMK A01 T01131016  RH  041%=      5-min Rain = 0
KAM3 171717Z 21003KT 11/M02 A302 RMK A01 T01121015  RH  041%=      5-min Rain = 0
KAM3 171718Z 24006KT 11/M01 A302 RMK A01 T01131013  RH  041%=      5-min Rain = 0
KAM3 171719Z 24005KT 11/M02 A302 RMK A01 T01141015  RH  041%=      5-min Rain = 0
KAM3 171720Z 22006KT 12/M01 A302 RMK A01 T01151013  RH  041%=      5-min Rain = 0
KAM3 171721Z 24004KT 12/M01 A302 RMK A01 T01171013  RH  040%=      5-min Rain = 0
KAM3 171722Z 24006KT 12/M01 A302 RMK A01 T01181013  RH  040%=      5-min Rain = 0
KAM3 171723Z 25005KT 12/M01 A302 RMK A01 T01201013  RH  040%=      5-min Rain = 0
KAM3 171724Z 24006KT 12/M01 A302 RMK A01 T01191013  RH  040%=      5-min Rain = 0
KAM3 171725Z 22005KT 12/M01 A302 RMK A01 T01221012  RH  040%=      5-min Rain = 0
KAM3 171726Z 23003KT 12/M01 A302 RMK A01 T01231014  RH  039%=      5-min Rain = 0
KAM3 171727Z 26002KT 12/M02 A302 RMK A01 T01221015  RH  039%=      5-min Rain = 0
KAM3 171728Z 25001KT 12/M02 A302 RMK A01 T01221015  RH  039%=      5-min Rain = 0
KAM3 171729Z 24003KT 12/M02 A3019 RMK A01 T01221015  RH  039%=      5-min Rain = 0
KAM3 171730Z 27002KT 12/M02 A3019 RMK A01 T01221015  RH  039%=      5-min Rain = 0
KAM3 171731Z 24005KT 12/M01 A3019 RMK A01 T01231014  RH  039%=      5-min Rain = 0
KAM3 171732Z 26004KT 12/M01 A3019 RMK A01 T01241013  RH  039%=      5-min Rain = 0
KAM3 171733Z 27003KT 12/M01 A3019 RMK A01 T01241014  RH  038%=      5-min Rain = 0
KAM3 171734Z 24005KT 13/M01 A3019 RMK A01 T01251013  RH  038%=      5-min Rain = 0
KAM3 171735Z 25006KT 13/M01 A3019 RMK A01 T01271012  RH  038%=      5-min Rain = 0
KAM3 171736Z 27005KT 13/M01 A3019 RMK A01 T01291014  RH  037%=      5-min Rain = 0
KAM3 171737Z 25005KT 13/M01 A3019 RMK A01 T01281013  RH  038%=      5-min Rain = 0
KAM3 171738Z 24004KT 13/M01 A3019 RMK A01 T01281014  RH  037%=      5-min Rain = 0
KAM3 171739Z 21004KT 13/M01 A3019 RMK A01 T01281014  RH  037%=      5-min Rain = 0
KAM3 171740Z 19005KT 13/M01 A3019 RMK A01 T01281013  RH  038%=      5-min Rain = 0
KAM3 171741Z 19004KT 13/M01 A3019 RMK A01 T01281014  RH  037%=      5-min Rain = 0
KAM3 171742Z 22004KT 13/M01 A3019 RMK A01 T01291013  RH  037%=      5-min Rain = 0
KAM3 171743Z 22006KT 13/M01 A3019 RMK A01 T01301012  RH  037%=      5-min Rain = 0
KAM3 171744Z 21004KT 13/M01 A3019 RMK A01 T01321012  RH  037%=      5-min Rain = 0
KAM3 171745Z 21004KT 13/M01 A3019 RMK A01 T01331013  RH  036%=      5-min Rain = 0
KAM3 171746Z 17003KT 13/M01 A3019 RMK A01 T01331012  RH  037%=      5-min Rain = 0
KAM3 171747Z 17003KT 13/M01 A3019 RMK A01 T01341013  RH  036%=      5-min Rain = 0
KAM3 171748Z 24002KT 14/M01 A3019 RMK A01 T01361012  RH  036%=      5-min Rain = 0
KAM3 171749Z 23002KT 14/M01 A3019 RMK A01 T01361013  RH  036%=      5-min Rain = 0
KAM3 171750Z 25004KT 14/M01 A3019 RMK A01 T01351012  RH  036%=      5-min Rain = 0
KAM3 171751Z 25004KT 14/M01 A3019 RMK A01 T01371013  RH  036%=      5-min Rain = 0
KAM3 171752Z 21004KT 14/M01 A3019 RMK A01 T01381010  RH  036%=      5-min Rain = 0
KAM3 171753Z 25004KT 14/M01 A3019 RMK A01 T01391010  RH  036%=      5-min Rain = 0
KAM3 171754Z 23005KT 14/M01 A3018 RMK A01 T01411010  RH  035%=      5-min Rain = 0
KAM3 171755Z 22003KT 14/M01 A3018 RMK A01 T01401011  RH  035%=      5-min Rain = 0
KAM3 171756Z 21000KT 14/M01 A3018 RMK A01 T01391012  RH  035%=      5-min Rain = 0
KAM3 171757Z 19002KT 14/M01 A3018 RMK A01 T01381011  RH  036%=      5-min Rain = 0
KAM3 171758Z 21004KT 14/M01 A3018 RMK A01 T01391011  RH  036%=      5-min Rain = 0
KAM3 171759Z 22005KT 14/M01 A3018 RMK A01 T01391011  RH  035%=      5-min Rain = 0
KAM3 171800Z 16005KT 14/M01 A3018 RMK A01 T01401010  RH  036%=      5-min Rain = 0
KAM3 171801Z 17005KT 14/M01 A3018 RMK A01 T01431009  RH  035%=      5-min Rain = 0
KAM3 171802Z 16003KT 14/M01 A3018 RMK A01 T01441009  RH  035%=      5-min Rain = 0
KAM3 171803Z 15003KT 15/M01 A3018 RMK A01 T01461010  RH  034%=      5-min Rain = 0
KAM3 171804Z 20002KT 15/M01 A3018 RMK A01 T01471010  RH  034%=      5-min Rain = 0
KAM3 171805Z 18000KT 15/M01 A3018 RMK A01 T01471009  RH  034%=      5-min Rain = 0
KAM3 171806Z 13001KT 15/M01 A3018 RMK A01 T01471010  RH  034%=      5-min Rain = 0
KAM3 171807Z 15001KT 15/M01 A3018 RMK A01 T01471010  RH  034%=      5-min Rain = 0
KAM3 171808Z 14003KT 15/M01 A3017 RMK A01 T01481008  RH  034%=      5-min Rain = 0
KAM3 171809Z 17003KT 15/M01 A3017 RMK A01 T01521008  RH  033%=      5-min Rain = 0
KAM3 171810Z 19007KT 15/M01 A3017 RMK A01 T01521010  RH  033%=      5-min Rain = 0
KAM3 171811Z 18007KT 15/M01 A3017 RMK A01 T01521010  RH  033%=      5-min Rain = 0
KAM3 171812Z 17005KT 15/M01 A3017 RMK A01 T01521012  RH  032%=      5-min Rain = 0
KAM3 171813Z 18007KT 15/M01 A3017 RMK A01 T01491013  RH  033%=      5-min Rain = 0
KAM3 171814Z 17006KT 15/M01 A3017 RMK A01 T01481011  RH  033%=      5-min Rain = 0
KAM3 171815Z 18004KT 15/M01 A3017 RMK A01 T01491012  RH  033%=      5-min Rain = 0
KAM3 171816Z 16004KT 15/M01 A3017 RMK A01 T01481013  RH  033%=      5-min Rain = 0
KAM3 171817Z 14006KT 15/M01 A3016 RMK A01 T01481011  RH  033%=      5-min Rain = 0
KAM3 171818Z 14003KT 15/M01 A3016 RMK A01 T01491014  RH  033%=      5-min Rain = 0
KAM3 171819Z 13003KT 15/M01 A3016 RMK A01 T01471014  RH  033%=      5-min Rain = 0
KAM3 171820Z 13002KT 15/M01 A3016 RMK A01 T01471013  RH  033%=      5-min Rain = 0
KAM3 171821Z 07003KT 15/M01 A3016 RMK A01 T01471013  RH  033%=      5-min Rain = 0
KAM3 171822Z 06003KT 15/M01 A3016 RMK A01 T01481013  RH  033%=      5-min Rain = 0
KAM3 171823Z 21002KT 15/M01 A3016 RMK A01 T01491012  RH  033%=      5-min Rain = 0
KAM3 171824Z 18003KT 15/M01 A3016 RMK A01 T01491012  RH  033%=      5-min Rain = 0
KAM3 171825Z 16004KT 15/M01 A3016 RMK A01 T01521011  RH  033%=      5-min Rain = 0
KAM3 171826Z 15004KT 15/M01 A3016 RMK A01 T01541011  RH  032%=      5-min Rain = 0
KAM3 171827Z 15002KT 16/M01 A3016 RMK A01 T01551014  RH  032%=      5-min Rain = 0
KAM3 171828Z 11000KT 16/M01 A3016 RMK A01 T01551013  RH  032%=      5-min Rain = 0
KAM3 171829Z 17004KT 16/M01 A3016 RMK A01 T01561011  RH  032%=      5-min Rain = 0
KAM3 171830Z 19005KT 16/M01 A3016 RMK A01 T01571012  RH  031%=      5-min Rain = 0
KAM3 171831Z 19008KT 16/M01 A3016 RMK A01 T01581013  RH  031%=      5-min Rain = 0
KAM3 171832Z 18006KT 16/M02 A3016 RMK A01 T01561015  RH  031%=      5-min Rain = 0
KAM3 171833Z 19004KT 15/M02 A3016 RMK A01 T01531015  RH  031%=      5-min Rain = 0
KAM3 171834Z 17005KT 15/M01 A3016 RMK A01 T01511014  RH  032%=      5-min Rain = 0
KAM3 171835Z 15004KT 15/M01 A3016 RMK A01 T01511014  RH  032%=      5-min Rain = 0
KAM3 171836Z 21005KT 15/M01 A3016 RMK A01 T01531013  RH  032%=      5-min Rain = 0
KAM3 171837Z 23005KT 15/M02 A3015 RMK A01 T01541015  RH  031%=      5-min Rain = 0
KAM3 171838Z 18006KT 15/M01 A3015 RMK A01 T01541013  RH  032%=      5-min Rain = 0
KAM3 171839Z 17007KT 16/M01 A3015 RMK A01 T01571012  RH  032%=      5-min Rain = 0
KAM3 171840Z 17008KT 16/M01 A3015 RMK A01 T01581012  RH  031%=      5-min Rain = 0
KAM3 171841Z 16007KT 16/M01 A3015 RMK A01 T01581011  RH  031%=      5-min Rain = 0
KAM3 171842Z 16006KT 16/M01 A3015 RMK A01 T01581011  RH  031%=      5-min Rain = 0
KAM3 171843Z 18004KT 16/M01 A3015 RMK A01 T01591011  RH  031%=      5-min Rain = 0
KAM3 171844Z 16005KT 16/M01 A3015 RMK A01 T01611010  RH  031%=      5-min Rain = 0
KAM3 171845Z 17006KT 16/M01 A3015 RMK A01 T01621010  RH  031%=      5-min Rain = 0
KAM3 171846Z 15008KT 16/M01 A3015 RMK A01 T01621011  RH  031%=      5-min Rain = 0
KAM3 171847Z 15006KT 16/M01 A3015 RMK A01 T01611013  RH  030%=      5-min Rain = 0
KAM3 171848Z 15006KT 16/M01 A3015 RMK A01 T01601012  RH  031%=      5-min Rain = 0
KAM3 171849Z 18005KT 16/M01 A3015 RMK A01 T01631011  RH  031%=      5-min Rain = 0
KAM3 171850Z 21005KT 17/M01 A3015 RMK A01 T01661011  RH  030%=      5-min Rain = 0
KAM3 171851Z 18006KT 17/M01 A3015 RMK A01 T01671011  RH  030%=      5-min Rain = 0
KAM3 171852Z 19007KT 17/M01 A3015 RMK A01 T01691010  RH  030%=      5-min Rain = 0
KAM3 171853Z 19006KT 17/M01 A3015 RMK A01 T01681011  RH  029%=      5-min Rain = 0
KAM3 171854Z 18004KT 17/M01 A3015 RMK A01 T01691011  RH  029%=      5-min Rain = 0
KAM3 171855Z 16006KT 17/M01 A3014 RMK A01 T01711012  RH  029%=      5-min Rain = 0
KAM3 171856Z 16006KT 17/M01 A3014 RMK A01 T01731014  RH  028%=      5-min Rain = 0
KAM3 171857Z 17007KT 17/M02 A3014 RMK A01 T01721016  RH  028%=      5-min Rain = 0
KAM3 171858Z 18010KT 17/M02 A3014 RMK A01 T01691016  RH  028%=      5-min Rain = 0
KAM3 171859Z 19010KT 17/M02 A3014 RMK A01 T01681016  RH  028%=      5-min Rain = 0
KAM3 171900Z 18009KT 17/M02 A3014 RMK A01 T01671016  RH  029%=      5-min Rain = 0
KAM3 171901Z 20006KT 17/M02 A3014 RMK A01 T01661017  RH  029%=      5-min Rain = 0
KAM3 171902Z 20007KT 17/M02 A3014 RMK A01 T01651016  RH  029%=      5-min Rain = 0
KAM3 171903Z 18006KT 17/M02 A3014 RMK A01 T01651016  RH  029%=      5-min Rain = 0
KAM3 171904Z 18007KT 17/M02 A3014 RMK A01 T01671015  RH  029%=      5-min Rain = 0
KAM3 171905Z 19010KT 17/M01 A3014 RMK A01 T01701014  RH  028%=      5-min Rain = 0
KAM3 171906Z 20010KT 17/M02 A3014 RMK A01 T01721015  RH  028%=      5-min Rain = 0
KAM3 171907Z 20009KT 17/M02 A3014 RMK A01 T01721015  RH  028%=      5-min Rain = 0
KAM3 171908Z 20007KT 17/M02 A3013 RMK A01 T01701016  RH  028%=      5-min Rain = 0
KAM3 171909Z 20008KT 17/M02 A3013 RMK A01 T01671017  RH  028%=      5-min Rain = 0
KAM3 171910Z 19004KT 17/M02 A3013 RMK A01 T01651016  RH  029%=      5-min Rain = 0
KAM3 171911Z 18008KT 17/M01 A3013 RMK A01 T01671013  RH  029%=      5-min Rain = 0
KAM3 171912Z 17009KT 17/M01 A3013 RMK A01 T01711013  RH  029%=      5-min Rain = 0
KAM3 171913Z 19011KT 17/M01 A3013 RMK A01 T01721014  RH  028%=      5-min Rain = 0
KAM3 171914Z 20011KT 17/M02 A3013 RMK A01 T01721015  RH  028%=      5-min Rain = 0
KAM3 171915Z 20008KT 17/M02 A3013 RMK A01 T01721016  RH  028%=      5-min Rain = 0
KAM3 171916Z 22006KT 17/M02 A3013 RMK A01 T01701016  RH  028%=      5-min Rain = 0
KAM3 171917Z 20008KT 17/M02 A3013 RMK A01 T01701015  RH  028%=      5-min Rain = 0
KAM3 171918Z 18007KT 17/M01 A3012 RMK A01 T01721013  RH  028%=      5-min Rain = 0
KAM3 171919Z 19012KT 18/M01 A3012 RMK A01 T01761012  RH  028%=      5-min Rain = 0
KAM3 171920Z 17009KT 18/M01 A3012 RMK A01 T01761014  RH  028%=      5-min Rain = 0
KAM3 171921Z 18009KT 17/M01 A3012 RMK A01 T01731013  RH  028%=      5-min Rain = 0
KAM3 171922Z 19012KT 17/M01 A3012 RMK A01 T01741013  RH  028%=      5-min Rain = 0
KAM3 171923Z 18012KT 18/M02 A3012 RMK A01 T01761016  RH  027%=      5-min Rain = 0
KAM3 171924Z 18012KT 17/M02 A3012 RMK A01 T01741018  RH  027%=      5-min Rain = 0
KAM3 171925Z 19010KT 17/M02 A3012 RMK A01 T01721018  RH  027%=      5-min Rain = 0
KAM3 171926Z 18012KT 17/M02 A3012 RMK A01 T01721018  RH  027%=      5-min Rain = 0
KAM3 171927Z 20011KT 17/M02 A3012 RMK A01 T01731019  RH  027%=      5-min Rain = 0
KAM3 171928Z 20010KT 18/M02 A3011 RMK A01 T01761019  RH  026%=      5-min Rain = 0
KAM3 171929Z 20009KT 18/M02 A3011 RMK A01 T01771020  RH  026%=      5-min Rain = 0
KAM3 171930Z 21011KT 18/M02 A3011 RMK A01 T01771019  RH  026%=      5-min Rain = 0
KAM3 171931Z 22008KT 18/M02 A3011 RMK A01 T01761022  RH  026%=      5-min Rain = 0
KAM3 171932Z 21005KT 17/M02 A3011 RMK A01 T01721024  RH  026%=      5-min Rain = 0
KAM3 171933Z 19008KT 17/M02 A3011 RMK A01 T01711022  RH  027%=      5-min Rain = 0
KAM3 171934Z 19008KT 17/M02 A3011 RMK A01 T01731019  RH  027%=      5-min Rain = 0
KAM3 171935Z 21012KT 18/M02 A301 RMK A01 T01751022  RH  026%=      5-min Rain = 0
KAM3 171936Z 22010KT 18/M02 A301 RMK A01 T01751018  RH  027%=      5-min Rain = 0
KAM3 171937Z 22008KT 18/M02 A301 RMK A01 T01751017  RH  027%=      5-min Rain = 0
KAM3 171938Z 23007KT 18/M02 A301 RMK A01 T01751017  RH  027%=      5-min Rain = 0
KAM3 171939Z 22006KT 18/M02 A301 RMK A01 T01761018  RH  027%=      5-min Rain = 0
KAM3 171940Z 21009G14KT 18/M02 A301 RMK A01 T01761017  RH  027%=      5-min Rain = 0
KAM3 171941Z 21009KT 18/M02 A301 RMK A01 T01791016  RH  026%=      5-min Rain = 0
KAM3 171942Z 22011KT 18/M02 A301 RMK A01 T01821017  RH  026%=      5-min Rain = 0
KAM3 171943Z 20011KT 18/M02 A3009 RMK A01 T01811018  RH  026%=      5-min Rain = 0
KAM3 171944Z 20014KT 18/M02 A3009 RMK A01 T01801019  RH  026%=      5-min Rain = 0
KAM3 171945Z 19011KT 18/M02 A3009 RMK A01 T01761023  RH  026%=      5-min Rain = 0
KAM3 171946Z 19012KT 17/M02 A3009 RMK A01 T01741022  RH  026%=      5-min Rain = 0
KAM3 171947Z 18009G14KT 18/M02 A3009 RMK A01 T01751022  RH  026%=      5-min Rain = 0
KAM3 171948Z 18007KT 18/M02 A3009 RMK A01 T01751023  RH  026%=      5-min Rain = 0
KAM3 171949Z 20009KT 17/M02 A3009 RMK A01 T01741024  RH  026%=      5-min Rain = 0
KAM3 171950Z 20009KT 18/M02 A3009 RMK A01 T01751022  RH  026%=      5-min Rain = 0
KAM3 171951Z 18010KT 18/M02 A3009 RMK A01 T01771019  RH  026%=      5-min Rain = 0
KAM3 171952Z 17011KT 18/M02 A3009 RMK A01 T01791018  RH  026%=      5-min Rain = 0
KAM3 171953Z 16009KT 18/M02 A3009 RMK A01 T01791019  RH  026%=      5-min Rain = 0
KAM3 171954Z 17009KT 18/M02 A3009 RMK A01 T01771020  RH  026%=      5-min Rain = 0
KAM3 171955Z 19011KT 18/M02 A3009 RMK A01 T01771018  RH  027%=      5-min Rain = 0
KAM3 171956Z 21011KT 18/M02 A3009 RMK A01 T01771017  RH  027%=      5-min Rain = 0
KAM3 171957Z 22010KT 18/M02 A3009 RMK A01 T01771017  RH  027%=      5-min Rain = 0
KAM3 171958Z 21007KT 18/M02 A3009 RMK A01 T01771019  RH  026%=      5-min Rain = 0
KAM3 171959Z 19008KT 18/M02 A3009 RMK A01 T01761017  RH  027%=      5-min Rain = 0
KAM3 172000Z 18008KT 18/M01 A3009 RMK A01 T01801013  RH  027%=      5-min Rain = 0
KAM3 172001Z 18011KT 18/M01 A3009 RMK A01 T01831014  RH  026%=      5-min Rain = 0
KAM3 172002Z 19014KT 18/M02 A3008 RMK A01 T01841017  RH  026%=      5-min Rain = 0
KAM3 172003Z 20012KT 18/M02 A3008 RMK A01 T01831020  RH  025%=      5-min Rain = 0
KAM3 172004Z 19012KT 18/M02 A3008 RMK A01 T01801020  RH  026%=      5-min Rain = 0
KAM3 172005Z 19011KT 18/M02 A3008 RMK A01 T01801019  RH  026%=      5-min Rain = 0
KAM3 172006Z 21010KT 18/M02 A3008 RMK A01 T01811019  RH  026%=      5-min Rain = 0
KAM3 172007Z 19015KT 18/M02 A3008 RMK A01 T01811019  RH  026%=      5-min Rain = 0
KAM3 172008Z 20015KT 18/M02 A3008 RMK A01 T01811018  RH  026%=      5-min Rain = 0
KAM3 172009Z 19013KT 18/M02 A3008 RMK A01 T01811019  RH  026%=      5-min Rain = 0
KAM3 172010Z 20013KT 18/M02 A3008 RMK A01 T01801018  RH  026%=      5-min Rain = 0
KAM3 172011Z 19010KT 18/M02 A3008 RMK A01 T01801018  RH  026%=      5-min Rain = 0
KAM3 172012Z 21014KT 18/M02 A3008 RMK A01 T01801019  RH  026%=      5-min Rain = 0
KAM3 172013Z 20013KT 18/M02 A3008 RMK A01 T01801019  RH  026%=      5-min Rain = 0
KAM3 172014Z 20008KT 18/M02 A3008 RMK A01 T01791020  RH  026%=      5-min Rain = 0
KAM3 172015Z 19007KT 18/M02 A3008 RMK A01 T01781020  RH  026%=      5-min Rain = 0
KAM3 172016Z 19010G15KT 18/M02 A3007 RMK A01 T01771020  RH  026%=      5-min Rain = 0
KAM3 172017Z 19014KT 18/M02 A3007 RMK A01 T01791020  RH  026%=      5-min Rain = 0
KAM3 172018Z 20013KT 18/M02 A3007 RMK A01 T01811021  RH  025%=      5-min Rain = 0
KAM3 172019Z 20011KT 18/M02 A3007 RMK A01 T01811023  RH  025%=      5-min Rain = 0
KAM3 172020Z 22010KT 18/M02 A3007 RMK A01 T01821023  RH  025%=      5-min Rain = 0
KAM3 172021Z 22010KT 18/M02 A3007 RMK A01 T01841021  RH  025%=      5-min Rain = 0
KAM3 172022Z 22011KT 18/M02 A3007 RMK A01 T01841022  RH  025%=      5-min Rain = 0
KAM3 172023Z 22014KT 19/M02 A3007 RMK A01 T01851023  RH  024%=      5-min Rain = 0
KAM3 172024Z 21013KT 18/M02 A3007 RMK A01 T01841024  RH  024%=      5-min Rain = 0
KAM3 172025Z 19011KT 18/M02 A3007 RMK A01 T01821024  RH  025%=      5-min Rain = 0
KAM3 172026Z 18010KT 18/M02 A3007 RMK A01 T01811024  RH  025%=      5-min Rain = 0
KAM3 172027Z 20014KT 18/M03 A3006 RMK A01 T01801025  RH  025%=      5-min Rain = 0
KAM3 172028Z 21014KT 18/M03 A3007 RMK A01 T01811026  RH  024%=      5-min Rain = 0
KAM3 172029Z 20012KT 18/M03 A3006 RMK A01 T01811028  RH  024%=      5-min Rain = 0
KAM3 172030Z 20010KT 18/M03 A3006 RMK A01 T01791030  RH  024%=      5-min Rain = 0
KAM3 172031Z 22008KT 18/M03 A3006 RMK A01 T01801027  RH  024%=      5-min Rain = 0
KAM3 172032Z 21014KT 19/M02 A3006 RMK A01 T01851024  RH  024%=      5-min Rain = 0
KAM3 172033Z 19012KT 19/M03 A3006 RMK A01 T01871025  RH  024%=      5-min Rain = 0
KAM3 172034Z 21014KT 19/M03 A3006 RMK A01 T01871026  RH  023%=      5-min Rain = 0
KAM3 172035Z 20010KT 19/M03 A3006 RMK A01 T01851028  RH  023%=      5-min Rain = 0
KAM3 172036Z 20012KT 18/M03 A3006 RMK A01 T01841028  RH  024%=      5-min Rain = 0
KAM3 172037Z 20010KT 18/M03 A3006 RMK A01 T01841028  RH  024%=      5-min Rain = 0
KAM3 172038Z 22006KT 19/M03 A3006 RMK A01 T01851028  RH  023%=      5-min Rain = 0
KAM3 172039Z 22011KT 18/M03 A3006 RMK A01 T01841027  RH  024%=      5-min Rain = 0
KAM3 172040Z 19013KT 19/M03 A3006 RMK A01 T01851028  RH  023%=      5-min Rain = 0
KAM3 172041Z 20013KT 19/M03 A3006 RMK A01 T01851027  RH  024%=      5-min Rain = 0
KAM3 172042Z 21012KT 19/M03 A3006 RMK A01 T01861027  RH  023%=      5-min Rain = 0
KAM3 172043Z 20014KT 19/M03 A3006 RMK A01 T01871027  RH  023%=      5-min Rain = 0
KAM3 172044Z 18014KT 19/M03 A3006 RMK A01 T01871028  RH  023%=      5-min Rain = 0
KAM3 172045Z 20014KT 19/M03 A3006 RMK A01 T01871028  RH  023%=      5-min Rain = 0
KAM3 172046Z 21013KT 19/M03 A3006 RMK A01 T01871027  RH  023%=      5-min Rain = 0
KAM3 172047Z 20014KT 19/M03 A3006 RMK A01 T01871026  RH  023%=      5-min Rain = 0
KAM3 172048Z 21012KT 19/M03 A3006 RMK A01 T01881028  RH  023%=      5-min Rain = 0
KAM3 172049Z 19011KT 19/M03 A3006 RMK A01 T01871027  RH  023%=      5-min Rain = 0
KAM3 172050Z 21009KT 19/M03 A3006 RMK A01 T01861028  RH  023%=      5-min Rain = 0
KAM3 172051Z 21010KT 19/M03 A3006 RMK A01 T01861028  RH  023%=      5-min Rain = 0
KAM3 172052Z 20009KT 19/M03 A3006 RMK A01 T01851028  RH  023%=      5-min Rain = 0
KAM3 172053Z 19010KT 19/M03 A3006 RMK A01 T01861027  RH  024%=      5-min Rain = 0
KAM3 172054Z 19012KT 19/M03 A3005 RMK A01 T01881027  RH  023%=      5-min Rain = 0
KAM3 172055Z 19014KT 19/M03 A3005 RMK A01 T01901027  RH  023%=      5-min Rain = 0
KAM3 172056Z 20011KT 19/M03 A3005 RMK A01 T01891027  RH  023%=      5-min Rain = 0
KAM3 172057Z 20013G18KT 19/M03 A3005 RMK A01 T01881026  RH  023%=      5-min Rain = 0
KAM3 172058Z 21015KT 19/M03 A3005 RMK A01 T01891027  RH  023%=      5-min Rain = 0
KAM3 172059Z 22013KT 19/M03 A3005 RMK A01 T01891028  RH  023%=      5-min Rain = 0
KAM3 172100Z 21012KT 19/M03 A3005 RMK A01 T01891028  RH  023%=      5-min Rain = 0
KAM3 172101Z 20012G17KT 19/M03 A3005 RMK A01 T01891028  RH  023%=      5-min Rain = 0
KAM3 172102Z 20015KT 19/M03 A3005 RMK A01 T01891028  RH  023%=      5-min Rain = 0
KAM3 172103Z 20014KT 19/M03 A3005 RMK A01 T01891027  RH  023%=      5-min Rain = 0
KAM3 172104Z 19015KT 19/M03 A3005 RMK A01 T01901027  RH  023%=      5-min Rain = 0
KAM3 172105Z 20014KT 19/M03 A3005 RMK A01 T01901027  RH  023%=      5-min Rain = 0
KAM3 172106Z 20013KT 19/M03 A3005 RMK A01 T01911027  RH  023%=      5-min Rain = 0
KAM3 172107Z 20012KT 19/M03 A3005 RMK A01 T01921028  RH  022%=      5-min Rain = 0
KAM3 172108Z 21011KT 19/M03 A3005 RMK A01 T01901027  RH  023%=      5-min Rain = 0
KAM3 172109Z 21013KT 19/M03 A3005 RMK A01 T01911026  RH  023%=      5-min Rain = 0
KAM3 172110Z 20013KT 19/M03 A3005 RMK A01 T01911028  RH  023%=      5-min Rain = 0
KAM3 172111Z 19014KT 19/M03 A3005 RMK A01 T01901029  RH  022%=      5-min Rain = 0
KAM3 172112Z 18016KT 19/M03 A3005 RMK A01 T01901029  RH  023%=      5-min Rain = 0
KAM3 172113Z 19014KT 19/M03 A3005 RMK A01 T01891029  RH  023%=      5-min Rain = 0
KAM3 172114Z 19015KT 19/M03 A3005 RMK A01 T01891029  RH  023%=      5-min Rain = 0
KAM3 172115Z 20014KT 19/M03 A3005 RMK A01 T01891029  RH  023%=      5-min Rain = 0
KAM3 172116Z 20016KT 19/M03 A3005 RMK A01 T01891029  RH  023%=      5-min Rain = 0
KAM3 172117Z 19011KT 19/M03 A3005 RMK A01 T01891029  RH  023%=      5-min Rain = 0
KAM3 172118Z 20012KT 19/M03 A3005 RMK A01 T01891027  RH  023%=      5-min Rain = 0
KAM3 172119Z 21013G18KT 19/M03 A3005 RMK A01 T01911026  RH  023%=      5-min Rain = 0
KAM3 172120Z 21015KT 19/M03 A3005 RMK A01 T01921029  RH  022%=      5-min Rain = 0
KAM3 172121Z 21011KT 19/M03 A3005 RMK A01 T01921029  RH  022%=      5-min Rain = 0
KAM3 172122Z 20014KT 19/M03 A3005 RMK A01 T01911029  RH  022%=      5-min Rain = 0
KAM3 172123Z 20013KT 19/M03 A3005 RMK A01 T01901028  RH  023%=      5-min Rain = 0
KAM3 172124Z 20016KT 19/M03 A3005 RMK A01 T01921028  RH  022%=      5-min Rain = 0
KAM3 172125Z 20014KT 19/M03 A3005 RMK A01 T01921029  RH  022%=      5-min Rain = 0
KAM3 172126Z 21012KT 19/M03 A3005 RMK A01 T01911030  RH  022%=      5-min Rain = 0
KAM3 172127Z 20011KT 19/M03 A3005 RMK A01 T01901031  RH  022%=      5-min Rain = 0
KAM3 172128Z 20015KT 19/M03 A3004 RMK A01 T01911029  RH  022%=      5-min Rain = 0
KAM3 172129Z 19015KT 19/M03 A3004 RMK A01 T01921031  RH  022%=      5-min Rain = 0
KAM3 172130Z 19017KT 19/M03 A3004 RMK A01 T01901031  RH  022%=      5-min Rain = 0
KAM3 172131Z 19017KT 19/M03 A3004 RMK A01 T01901030  RH  022%=      5-min Rain = 0
KAM3 172132Z 19012G17KT 19/M03 A3004 RMK A01 T01891029  RH  023%=      5-min Rain = 0
KAM3 172133Z 19012KT 19/M03 A3004 RMK A01 T01881029  RH  023%=      5-min Rain = 0
KAM3 172134Z 19012KT 19/M03 A3004 RMK A01 T01881028  RH  023%=      5-min Rain = 0
KAM3 172135Z 20015KT 19/M03 A3004 RMK A01 T01901027  RH  023%=      5-min Rain = 0
KAM3 172136Z 20015KT 19/M03 A3004 RMK A01 T01911027  RH  023%=      5-min Rain = 0
KAM3 172137Z 20013KT 19/M03 A3004 RMK A01 T01911027  RH  023%=      5-min Rain = 0
KAM3 172138Z 19016KT 19/M03 A3004 RMK A01 T01921027  RH  023%=      5-min Rain = 0
KAM3 172139Z 19015KT 19/M03 A3004 RMK A01 T01911027  RH  023%=      5-min Rain = 0
KAM3 172140Z 20012KT 19/M03 A3004 RMK A01 T01911027  RH  023%=      5-min Rain = 0
KAM3 172141Z 19011KT 19/M03 A3004 RMK A01 T01901026  RH  023%=      5-min Rain = 0
KAM3 172142Z 19013KT 19/M03 A3004 RMK A01 T01921027  RH  023%=      5-min Rain = 0
KAM3 172143Z 21014KT 20/M03 A3004 RMK A01 T01951026  RH  022%=      5-min Rain = 0
KAM3 172144Z 21013KT 20/M03 A3004 RMK A01 T01951027  RH  022%=      5-min Rain = 0
KAM3 172145Z 21009KT 19/M03 A3004 RMK A01 T01931027  RH  022%=      5-min Rain = 0
KAM3 172146Z 21015KT 19/M03 A3004 RMK A01 T01941026  RH  022%=      5-min Rain = 0
KAM3 172147Z 21017KT 19/M03 A3004 RMK A01 T01941027  RH  022%=      5-min Rain = 0
KAM3 172148Z 21017KT 19/M03 A3004 RMK A01 T01931027  RH  022%=      5-min Rain = 0
KAM3 172149Z 21013KT 19/M03 A3004 RMK A01 T01921029  RH  022%=      5-min Rain = 0
KAM3 172150Z 20013KT 19/M03 A3004 RMK A01 T01921029  RH  022%=      5-min Rain = 0
KAM3 172151Z 20012KT 19/M03 A3004 RMK A01 T01921028  RH  022%=      5-min Rain = 0
KAM3 172152Z 20012KT 19/M03 A3004 RMK A01 T01931027  RH  022%=      5-min Rain = 0
KAM3 172153Z 20011KT 20/M03 A3003 RMK A01 T01951025  RH  022%=      5-min Rain = 0
KAM3 172154Z 19012KT 20/M03 A3003 RMK A01 T01961025  RH  022%=      5-min Rain = 0
KAM3 172155Z 19014KT 20/M03 A3003 RMK A01 T01961026  RH  022%=      5-min Rain = 0
KAM3 172156Z 20011KT 19/M03 A3003 RMK A01 T01931028  RH  022%=      5-min Rain = 0
KAM3 172157Z 21017KT 19/M03 A3003 RMK A01 T01921027  RH  022%=      5-min Rain = 0
KAM3 172158Z 20015KT 19/M03 A3003 RMK A01 T01921028  RH  022%=      5-min Rain = 0
KAM3 172159Z 20012KT 19/M03 A3003 RMK A01 T01921028  RH  022%=      5-min Rain = 0
KAM3 172200Z 21011KT 19/M03 A3003 RMK A01 T01911027  RH  023%=      5-min Rain = 0
KAM3 172201Z 21010KT 19/M03 A3003 RMK A01 T01921027  RH  023%=      5-min Rain = 0
KAM3 172202Z 21014KT 19/M03 A3003 RMK A01 T01931026  RH  023%=      5-min Rain = 0
KAM3 172203Z 19013KT 19/M03 A3003 RMK A01 T01941027  RH  022%=      5-min Rain = 0
KAM3 172204Z 19010KT 19/M03 A3003 RMK A01 T01941027  RH  022%=      5-min Rain = 0
KAM3 172205Z 19010KT 19/M03 A3003 RMK A01 T01941025  RH  023%=      5-min Rain = 0
KAM3 172206Z 19012G17KT 20/M03 A3003 RMK A01 T01951025  RH  022%=      5-min Rain = 0
KAM3 172207Z 20015KT 19/M03 A3003 RMK A01 T01941026  RH  022%=      5-min Rain = 0
KAM3 172208Z 19015KT 19/M03 A3003 RMK A01 T01921027  RH  023%=      5-min Rain = 0
KAM3 172209Z 19013KT 19/M03 A3003 RMK A01 T01921026  RH  023%=      5-min Rain = 0
KAM3 172210Z 19014KT 19/M03 A3003 RMK A01 T01921027  RH  023%=      5-min Rain = 0
KAM3 172211Z 19014KT 19/M03 A3003 RMK A01 T01921027  RH  023%=      5-min Rain = 0
KAM3 172212Z 20015KT 19/M03 A3003 RMK A01 T01921027  RH  023%=      5-min Rain = 0
KAM3 172213Z 20016KT 19/M03 A3003 RMK A01 T01921028  RH  022%=      5-min Rain = 0
KAM3 172214Z 20015KT 19/M03 A3003 RMK A01 T01921028  RH  022%=      5-min Rain = 0
KAM3 172215Z 20012KT 19/M03 A3003 RMK A01 T01901028  RH  023%=      5-min Rain = 0
KAM3 172216Z 20014KT 19/M03 A3003 RMK A01 T01901026  RH  023%=      5-min Rain = 0
KAM3 172217Z 20012KT 19/M03 A3003 RMK A01 T01911027  RH  023%=      5-min Rain = 0
KAM3 172218Z 21012KT 19/M03 A3003 RMK A01 T01921027  RH  022%=      5-min Rain = 0
KAM3 172219Z 20013KT 19/M03 A3003 RMK A01 T01931028  RH  022%=      5-min Rain = 0
KAM3 172220Z 20011KT 19/M03 A3003 RMK A01 T01921029  RH  022%=      5-min Rain = 0
KAM3 172221Z 20012KT 19/M03 A3003 RMK A01 T01921029  RH  022%=      5-min Rain = 0
KAM3 172222Z 21010KT 19/M03 A3003 RMK A01 T01931029  RH  022%=      5-min Rain = 0
KAM3 172223Z 20012KT 19/M03 A3003 RMK A01 T01931029  RH  022%=      5-min Rain = 0
KAM3 172224Z 20011KT 19/M03 A3002 RMK A01 T01941029  RH  022%=      5-min Rain = 0
KAM3 172225Z 19011KT 19/M03 A3002 RMK A01 T01931030  RH  022%=      5-min Rain = 0
KAM3 172226Z 19014KT 19/M03 A3002 RMK A01 T01921029  RH  022%=      5-min Rain = 0
KAM3 172227Z 20012KT 19/M03 A3002 RMK A01 T01931029  RH  022%=      5-min Rain = 0
KAM3 172228Z 20010KT 19/M03 A3002 RMK A01 T01931029  RH  022%=      5-min Rain = 0
KAM3 172229Z 20010KT 19/M03 A3002 RMK A01 T01941027  RH  022%=      5-min Rain = 0
KAM3 172230Z 19013KT 20/M03 A3002 RMK A01 T01951028  RH  022%=      5-min Rain = 0
KAM3 172231Z 20011KT 20/M03 A3002 RMK A01 T01951028  RH  022%=      5-min Rain = 0
KAM3 172232Z 20010KT 19/M03 A3002 RMK A01 T01941028  RH  022%=      5-min Rain = 0
KAM3 172233Z 20009KT 19/M03 A3002 RMK A01 T01941028  RH  022%=      5-min Rain = 0
KAM3 172234Z 21012KT 20/M03 A3002 RMK A01 T01951027  RH  022%=      5-min Rain = 0
KAM3 172235Z 21011KT 20/M03 A3002 RMK A01 T01951028  RH  022%=      5-min Rain = 0
KAM3 172236Z 20012KT 20/M03 A3002 RMK A01 T01951028  RH  022%=      5-min Rain = 0
KAM3 172237Z 19013KT 19/M03 A3002 RMK A01 T01941028  RH  022%=      5-min Rain = 0
KAM3 172238Z 19014KT 19/M03 A3002 RMK A01 T01931028  RH  022%=      5-min Rain = 0
KAM3 172239Z 20013KT 19/M03 A3002 RMK A01 T01921028  RH  022%=      5-min Rain = 0
KAM3 172240Z 20009KT 19/M03 A3002 RMK A01 T01921027  RH  022%=      5-min Rain = 0
KAM3 172241Z 20009KT 19/M03 A3002 RMK A01 T01931026  RH  023%=      5-min Rain = 0
KAM3 172242Z 18011KT 19/M03 A3002 RMK A01 T01941027  RH  022%=      5-min Rain = 0
KAM3 172243Z 19013KT 19/M03 A3002 RMK A01 T01941027  RH  022%=      5-min Rain = 0
KAM3 172244Z 19013KT 19/M03 A3002 RMK A01 T01931028  RH  022%=      5-min Rain = 0
KAM3 172245Z 19012KT 19/M03 A3002 RMK A01 T01921028  RH  022%=      5-min Rain = 0
KAM3 172246Z 19010KT 19/M03 A3002 RMK A01 T01911028  RH  022%=      5-min Rain = 0
KAM3 172247Z 19011KT 19/M03 A3002 RMK A01 T01921027  RH  023%=      5-min Rain = 0
KAM3 172248Z 20013KT 19/M03 A3002 RMK A01 T01931027  RH  022%=      5-min Rain = 0
KAM3 172249Z 20015KT 19/M03 A3002 RMK A01 T01931027  RH  022%=      5-min Rain = 0
KAM3 172250Z 19014KT 19/M03 A3002 RMK A01 T01911029  RH  022%=      5-min Rain = 0
KAM3 172251Z 19012KT 19/M03 A3002 RMK A01 T01911028  RH  023%=      5-min Rain = 0
KAM3 172252Z 19010KT 19/M03 A3002 RMK A01 T01911027  RH  023%=      5-min Rain = 0
KAM3 172253Z 19013KT 19/M03 A3001 RMK A01 T01911027  RH  023%=      5-min Rain = 0
KAM3 172254Z 19014KT 19/M03 A3001 RMK A01 T01911028  RH  023%=      5-min Rain = 0
KAM3 172255Z 19014KT 19/M03 A3001 RMK A01 T01911027  RH  023%=      5-min Rain = 0
KAM3 172256Z 18015KT 19/M03 A3001 RMK A01 T01901028  RH  023%=      5-min Rain = 0
KAM3 172257Z 19014KT 19/M03 A3001 RMK A01 T01891028  RH  023%=      5-min Rain = 0
KAM3 172258Z 19013KT 19/M03 A3001 RMK A01 T01881028  RH  023%=      5-min Rain = 0
KAM3 172259Z 19013KT 19/M03 A3001 RMK A01 T01881028  RH  023%=      5-min Rain = 0
KAM3 172300Z 20013KT 19/M03 A3001 RMK A01 T01881028  RH  023%=      5-min Rain = 0
KAM3 172301Z 19014KT 19/M03 A3001 RMK A01 T01881028  RH  023%=      5-min Rain = 0
KAM3 172302Z 19014KT 19/M03 A3001 RMK A01 T01881028  RH  023%=      5-min Rain = 0
KAM3 172303Z 20016KT 19/M03 A3001 RMK A01 T01871028  RH  023%=      5-min Rain = 0
KAM3 172304Z 19013KT 19/M03 A3001 RMK A01 T01871028  RH  023%=      5-min Rain = 0
KAM3 172305Z 19013KT 19/M03 A3001 RMK A01 T01871028  RH  023%=      5-min Rain = 0
KAM3 172306Z 19013KT 19/M03 A3001 RMK A01 T01861027  RH  023%=      5-min Rain = 0
KAM3 172307Z 19013KT 19/M03 A3001 RMK A01 T01861027  RH  023%=      5-min Rain = 0
KAM3 172308Z 18011KT 19/M03 A3001 RMK A01 T01861027  RH  023%=      5-min Rain = 0
KAM3 172309Z 18013KT 19/M03 A3001 RMK A01 T01861027  RH  023%=      5-min Rain = 0
KAM3 172310Z 18012KT 19/M03 A3001 RMK A01 T01861027  RH  023%=      5-min Rain = 0
KAM3 172311Z 18013KT 19/M03 A3001 RMK A01 T01851027  RH  024%=      5-min Rain = 0
KAM3 172312Z 19014KT 18/M03 A3001 RMK A01 T01841028  RH  024%=      5-min Rain = 0
KAM3 172313Z 19012KT 18/M03 A3001 RMK A01 T01841028  RH  024%=      5-min Rain = 0
KAM3 172314Z 19013KT 18/M03 A3001 RMK A01 T01831027  RH  024%=      5-min Rain = 0
KAM3 172315Z 19012KT 18/M03 A3001 RMK A01 T01831027  RH  024%=      5-min Rain = 0
KAM3 172316Z 19012KT 18/M03 A3001 RMK A01 T01831027  RH  024%=      5-min Rain = 0
KAM3 172317Z 19011KT 18/M03 A3001 RMK A01 T01821027  RH  024%=      5-min Rain = 0
KAM3 172318Z 18012KT 18/M03 A3001 RMK A01 T01821027  RH  024%=      5-min Rain = 0
KAM3 172319Z 19012KT 18/M03 A3001 RMK A01 T01811027  RH  024%=      5-min Rain = 0
KAM3 172320Z 19012KT 18/M03 A3001 RMK A01 T01811027  RH  024%=      5-min Rain = 0
KAM3 172321Z 19011KT 18/M03 A3001 RMK A01 T01811027  RH  024%=      5-min Rain = 0
KAM3 172322Z 18010KT 18/M03 A3001 RMK A01 T01801027  RH  024%=      5-min Rain = 0
KAM3 172323Z 18011KT 18/M03 A3001 RMK A01 T01801027  RH  024%=      5-min Rain = 0
KAM3 172324Z 18011KT 18/M03 A3001 RMK A01 T01791027  RH  024%=      5-min Rain = 0
KAM3 172325Z 18012KT 18/M03 A3001 RMK A01 T01781028  RH  024%=      5-min Rain = 0
KAM3 172326Z 18011KT 18/M03 A3001 RMK A01 T01781027  RH  025%=      5-min Rain = 0
KAM3 172327Z 18012KT 18/M03 A3001 RMK A01 T01771028  RH  025%=      5-min Rain = 0
KAM3 172328Z 18011KT 18/M03 A3001 RMK A01 T01761028  RH  025%=      5-min Rain = 0
KAM3 172329Z 18010KT 18/M03 A3001 RMK A01 T01761028  RH  025%=      5-min Rain = 0
KAM3 172330Z 18012KT 18/M03 A3001 RMK A01 T01751028  RH  025%=      5-min Rain = 0
KAM3 172331Z 18011KT 18/M03 A3001 RMK A01 T01751028  RH  025%=      5-min Rain = 0
KAM3 172332Z 18011KT 17/M03 A3001 RMK A01 T01741028  RH  025%=      5-min Rain = 0
KAM3 172333Z 18011KT 17/M03 A3001 RMK A01 T01731028  RH  025%=      5-min Rain = 0
KAM3 172334Z 18012KT 17/M03 A3001 RMK A01 T01721028  RH  025%=      5-min Rain = 0
KAM3 172335Z 18011KT 17/M03 A3001 RMK A01 T01721028  RH  025%=      5-min Rain = 0
KAM3 172336Z 18011KT 17/M03 A3001 RMK A01 T01711028  RH  025%=      5-min Rain = 0
KAM3 172337Z 18011KT 17/M03 A30 RMK A01 T01701029  RH  026%=      5-min Rain = 0
KAM3 172338Z 18012KT 17/M03 A30 RMK A01 T01701029  RH  026%=      5-min Rain = 0
KAM3 172339Z 18011KT 17/M03 A30 RMK A01 T01701028  RH  026%=      5-min Rain = 0
KAM3 172340Z 18011KT 17/M03 A30 RMK A01 T01691029  RH  026%=      5-min Rain = 0
KAM3 172341Z 18012KT 17/M03 A30 RMK A01 T01681029  RH  026%=      5-min Rain = 0
KAM3 172342Z 18011KT 17/M03 A30 RMK A01 T01671029  RH  026%=      5-min Rain = 0
KAM3 172343Z 18011KT 17/M03 A30 RMK A01 T01671029  RH  026%=      5-min Rain = 0
KAM3 172344Z 18012KT 17/M03 A30 RMK A01 T01661029  RH  026%=      5-min Rain = 0
KAM3 172345Z 18011KT 17/M03 A30 RMK A01 T01651029  RH  026%=      5-min Rain = 0
KAM3 172346Z 18010KT 16/M03 A30 RMK A01 T01631029  RH  027%=      5-min Rain = 0
KAM3 172347Z 18011KT 16/M03 A30 RMK A01 T01631029  RH  027%=      5-min Rain = 0
KAM3 172348Z 18010KT 16/M03 A30 RMK A01 T01621029  RH  027%=      5-min Rain = 0
KAM3 172349Z 18010KT 16/M03 A30 RMK A01 T01601029  RH  027%=      5-min Rain = 0
KAM3 172350Z 18009KT 16/M03 A30 RMK A01 T01591029  RH  027%=      5-min Rain = 0
KAM3 172351Z 18011KT 16/M03 A30 RMK A01 T01571029  RH  028%=      5-min Rain = 0
KAM3 172352Z 18010KT 16/M03 A30 RMK A01 T01561030  RH  028%=      5-min Rain = 0
KAM3 172353Z 18010KT 16/M03 A30 RMK A01 T01551030  RH  028%=      5-min Rain = 0
KAM3 172354Z 18011KT 15/M03 A30 RMK A01 T01531030  RH  028%=      5-min Rain = 0
KAM3 172355Z 18011KT 15/M03 A30 RMK A01 T01521030  RH  028%=      5-min Rain = 0
KAM3 172356Z 18011KT 15/M03 A30 RMK A01 T01521030  RH  029%=      5-min Rain = 0
KAM3 172357Z 18012KT 15/M03 A30 RMK A01 T01511030  RH  029%=      5-min Rain = 0
KAM3 172358Z 18012KT 15/M03 A30 RMK A01 T01501030  RH  029%=      5-min Rain = 0
KAM3 172359Z 18012KT 15/M03 A30 RMK A01 T01501030  RH  029%=      5-min Rain = 0
KAM3 180000Z 18012KT 15/M03 A30 RMK A01 T01491030  RH  029%=      5-min Rain = 0
KAM3 180001Z 18012KT 15/M03 A30 RMK A01 T01481030  RH  029%=      5-min Rain = 0
KAM3 180002Z 18011KT 15/M03 A30 RMK A01 T01471030  RH  029%=      5-min Rain = 0
KAM3 180003Z 17011KT 15/M03 A30 RMK A01 T01461030  RH  030%=      5-min Rain = 0
KAM3 180004Z 17011KT 15/M03 A30 RMK A01 T01451030  RH  030%=      5-min Rain = 0
KAM3 180005Z 17011KT 14/M03 A30 RMK A01 T01441030  RH  030%=      5-min Rain = 0
KAM3 180006Z 17011KT 14/M03 A30 RMK A01 T01431030  RH  030%=      5-min Rain = 0
KAM3 180007Z 17011KT 14/M03 A30 RMK A01 T01421031  RH  030%=      5-min Rain = 0
KAM3 180008Z 17011KT 14/M03 A30 RMK A01 T01411031  RH  030%=      5-min Rain = 0
KAM3 180009Z 17011KT 14/M03 A30 RMK A01 T01391031  RH  030%=      5-min Rain = 0
KAM3 180010Z 17011KT 14/M03 A30 RMK A01 T01381031  RH  031%=      5-min Rain = 0
KAM3 180011Z 17011KT 14/M03 A30 RMK A01 T01381031  RH  031%=      5-min Rain = 0
KAM3 180012Z 17012KT 14/M03 A30 RMK A01 T01371031  RH  031%=      5-min Rain = 0
KAM3 180013Z 17013KT 14/M03 A30 RMK A01 T01371031  RH  031%=      5-min Rain = 0
KAM3 180014Z 17012KT 14/M03 A30 RMK A01 T01371031  RH  031%=      5-min Rain = 0
KAM3 180015Z 17012KT 14/M03 A30 RMK A01 T01371031  RH  031%=      5-min Rain = 0
KAM3 180016Z 18012KT 14/M03 A30 RMK A01 T01371031  RH  031%=      5-min Rain = 0
KAM3 180017Z 18012KT 14/M03 A30 RMK A01 T01371030  RH  031%=      5-min Rain = 0
KAM3 180018Z 17012KT 14/M03 A30 RMK A01 T01371030  RH  031%=      5-min Rain = 0
KAM3 180019Z 17012KT 14/M03 A30 RMK A01 T01351030  RH  032%=      5-min Rain = 0
KAM3 180020Z 17012KT 13/M03 A30 RMK A01 T01341031  RH  032%=      5-min Rain = 0
KAM3 180021Z 17012KT 13/M03 A30 RMK A01 T01341030  RH  032%=      5-min Rain = 0
KAM3 180022Z 17012KT 13/M03 A30 RMK A01 T01321031  RH  032%=      5-min Rain = 0
KAM3 180023Z 17012KT 13/M03 A30 RMK A01 T01311031  RH  032%=      5-min Rain = 0
KAM3 180024Z 17011KT 13/M03 A30 RMK A01 T01301031  RH  033%=      5-min Rain = 0
KAM3 180025Z 17012KT 13/M03 A30 RMK A01 T01301031  RH  033%=      5-min Rain = 0
KAM3 180026Z 17012KT 13/M03 A2999 RMK A01 T01291031  RH  033%=      5-min Rain = 0
KAM3 180027Z 17012KT 13/M03 A2999 RMK A01 T01291031  RH  033%=      5-min Rain = 0
KAM3 180028Z 17012KT 13/M03 A2999 RMK A01 T01281030  RH  033%=      5-min Rain = 0
KAM3 180029Z 17013KT 13/M03 A2999 RMK A01 T01281030  RH  033%=      5-min Rain = 0
KAM3 180030Z 17013KT 13/M03 A2999 RMK A01 T01271031  RH  033%=      5-min Rain = 0
KAM3 180031Z 17013KT 13/M03 A2999 RMK A01 T01261031  RH  033%=      5-min Rain = 0
KAM3 180032Z 17014KT 13/M03 A2999 RMK A01 T01251031  RH  034%=      5-min Rain = 0
KAM3 180033Z 18014KT 13/M03 A2999 RMK A01 T01251031  RH  034%=      5-min Rain = 0
KAM3 180034Z 17013KT 13/M03 A2999 RMK A01 T01251030  RH  034%=      5-min Rain = 0
KAM3 180035Z 18013KT 13/M03 A2999 RMK A01 T01251031  RH  034%=      5-min Rain = 0
KAM3 180036Z 18013KT 13/M03 A2999 RMK A01 T01251031  RH  034%=      5-min Rain = 0
KAM3 180037Z 18013KT 13/M03 A2999 RMK A01 T01251031  RH  034%=      5-min Rain = 0
KAM3 180038Z 17013KT 13/M03 A2999 RMK A01 T01251031  RH  034%=      5-min Rain = 0
KAM3 180039Z 18013KT 13/M03 A2999 RMK A01 T01251031  RH  034%=      5-min Rain = 0
KAM3 180040Z 17014KT 12/M03 A2999 RMK A01 T01241031  RH  034%=      5-min Rain = 0
KAM3 180041Z 18015KT 12/M03 A2999 RMK A01 T01241031  RH  034%=      5-min Rain = 0
KAM3 180042Z 18014KT 13/M03 A2999 RMK A01 T01251031  RH  034%=      5-min Rain = 0
KAM3 180043Z 18013KT 13/M03 A2999 RMK A01 T01261031  RH  033%=      5-min Rain = 0
KAM3 180044Z 19012KT 13/M03 A2999 RMK A01 T01261031  RH  033%=      5-min Rain = 0
KAM3 180045Z 19012KT 13/M03 A2999 RMK A01 T01271031  RH  033%=      5-min Rain = 0
KAM3 180046Z 19012KT 13/M03 A2999 RMK A01 T01251031  RH  033%=      5-min Rain = 0
KAM3 180047Z 19011KT 12/M03 A2999 RMK A01 T01231032  RH  034%=      5-min Rain = 0
KAM3 180048Z 18010KT 12/M03 A2999 RMK A01 T01211032  RH  034%=      5-min Rain = 0
KAM3 180049Z 18011KT 12/M03 A2999 RMK A01 T01181032  RH  035%=      5-min Rain = 0
KAM3 180050Z 18010KT 12/M03 A2999 RMK A01 T01161033  RH  035%=      5-min Rain = 0
KAM3 180051Z 18011KT 12/M03 A2999 RMK A01 T01151033  RH  035%=      5-min Rain = 0
KAM3 180052Z 17011KT 11/M03 A2999 RMK A01 T01141032  RH  036%=      5-min Rain = 0
KAM3 180053Z 17011KT 12/M03 A2999 RMK A01 T01151032  RH  036%=      5-min Rain = 0
KAM3 180054Z 17012KT 12/M03 A2999 RMK A01 T01161031  RH  036%=      5-min Rain = 0
KAM3 180055Z 17012KT 12/M03 A2999 RMK A01 T01181030  RH  035%=      5-min Rain = 0
KAM3 180056Z 17012KT 12/M03 A2999 RMK A01 T01191030  RH  035%=      5-min Rain = 0
KAM3 180057Z 17013KT 12/M03 A2999 RMK A01 T01191030  RH  035%=      5-min Rain = 0
KAM3 180058Z 17013KT 12/M03 A2999 RMK A01 T01201030  RH  035%=      5-min Rain = 0
KAM3 180059Z 17013KT 12/M03 A2999 RMK A01 T01211030  RH  035%=      5-min Rain = 0
KAM3 180100Z 17014KT 12/M03 A2999 RMK A01 T01211030  RH  035%=      5-min Rain = 0
KAM3 180101Z 17014KT 12/M03 A2999 RMK A01 T01221030  RH  035%=      5-min Rain = 0
KAM3 180102Z 17015KT 12/M03 A2999 RMK A01 T01221030  RH  035%=      5-min Rain = 0
KAM3 180103Z 17014KT 12/M03 A2999 RMK A01 T01231030  RH  034%=      5-min Rain = 0
KAM3 180104Z 17014KT 12/M03 A2999 RMK A01 T01221029  RH  035%=      5-min Rain = 0
KAM3 180105Z 17014KT 12/M03 A2999 RMK A01 T01221029  RH  035%=      5-min Rain = 0
KAM3 180106Z 17013KT 12/M03 A2999 RMK A01 T01211030  RH  035%=      5-min Rain = 0
KAM3 180107Z 17014KT 12/M03 A2999 RMK A01 T01211030  RH  035%=      5-min Rain = 0
KAM3 180108Z 17014KT 12/M03 A2999 RMK A01 T01201030  RH  035%=      5-min Rain = 0
KAM3 180109Z 17014KT 12/M03 A2999 RMK A01 T01181030  RH  035%=      5-min Rain = 0
KAM3 180110Z 17014KT 12/M03 A2999 RMK A01 T01171030  RH  036%=      5-min Rain = 0
KAM3 180111Z 17014KT 12/M03 A2999 RMK A01 T01161030  RH  036%=      5-min Rain = 0
KAM3 180112Z 17015KT 12/M03 A2999 RMK A01 T01161030  RH  036%=      5-min Rain = 0
KAM3 180113Z 17014KT 12/M03 A2999 RMK A01 T01151030  RH  036%=      5-min Rain = 0
KAM3 180114Z 17015KT 12/M03 A2999 RMK A01 T01151029  RH  036%=      5-min Rain = 0
KAM3 180115Z 17015KT 12/M03 A2999 RMK A01 T01151029  RH  036%=      5-min Rain = 0
KAM3 180116Z 17015KT 12/M03 A2999 RMK A01 T01151029  RH  036%=      5-min Rain = 0
KAM3 180117Z 17015KT 12/M03 A2999 RMK A01 T01161029  RH  036%=      5-min Rain = 0
KAM3 180118Z 17015KT 12/M03 A2999 RMK A01 T01161028  RH  036%=      5-min Rain = 0
KAM3 180119Z 17015KT 12/M03 A2999 RMK A01 T01171028  RH  036%=      5-min Rain = 0
KAM3 180120Z 17015KT 12/M03 A2999 RMK A01 T01161028  RH  036%=      5-min Rain = 0
KAM3 180121Z 17014KT 12/M03 A2999 RMK A01 T01171028  RH  036%=      5-min Rain = 0
KAM3 180122Z 17014KT 12/M03 A2999 RMK A01 T01171027  RH  036%=      5-min Rain = 0
KAM3 180123Z 17013KT 12/M03 A2999 RMK A01 T01161028  RH  037%=      5-min Rain = 0
KAM3 180124Z 18013KT 12/M03 A2999 RMK A01 T01151028  RH  037%=      5-min Rain = 0
KAM3 180125Z 18013KT 12/M03 A2999 RMK A01 T01151027  RH  037%=      5-min Rain = 0
KAM3 180126Z 18012KT 12/M03 A2999 RMK A01 T01151027  RH  037%=      5-min Rain = 0
KAM3 180127Z 18012KT 11/M03 A2999 RMK A01 T01141027  RH  037%=      5-min Rain = 0
KAM3 180128Z 18011KT 11/M03 A2999 RMK A01 T01121028  RH  037%=      5-min Rain = 0
KAM3 180129Z 18012KT 11/M03 A2999 RMK A01 T01111028  RH  038%=      5-min Rain = 0
KAM3 180130Z 17012KT 11/M03 A2999 RMK A01 T01101028  RH  038%=      5-min Rain = 0
KAM3 180131Z 18013KT 11/M03 A2999 RMK A01 T01091027  RH  038%=      5-min Rain = 0
KAM3 180132Z 17013KT 11/M03 A2999 RMK A01 T01101027  RH  038%=      5-min Rain = 0
KAM3 180133Z 18013KT 11/M03 A2999 RMK A01 T01111027  RH  038%=      5-min Rain = 0
KAM3 180134Z 18013KT 11/M03 A2999 RMK A01 T01121026  RH  038%=      5-min Rain = 0
KAM3 180135Z 17013KT 11/M03 A2999 RMK A01 T01131026  RH  038%=      5-min Rain = 0
KAM3 180136Z 17013KT 11/M03 A2999 RMK A01 T01131026  RH  038%=      5-min Rain = 0
KAM3 180137Z 17014KT 11/M03 A2999 RMK A01 T01131026  RH  038%=      5-min Rain = 0
KAM3 180138Z 17014KT 11/M03 A2999 RMK A01 T01131026  RH  038%=      5-min Rain = 0
KAM3 180139Z 17014KT 11/M03 A2999 RMK A01 T01141025  RH  038%=      5-min Rain = 0
KAM3 180140Z 17014KT 12/M03 A2999 RMK A01 T01151025  RH  038%=      5-min Rain = 0
KAM3 180141Z 17014KT 12/M03 A2999 RMK A01 T01151025  RH  038%=      5-min Rain = 0
KAM3 180142Z 17013KT 12/M03 A2999 RMK A01 T01151025  RH  038%=      5-min Rain = 0
KAM3 180143Z 17013KT 12/M03 A2999 RMK A01 T01151025  RH  038%=      5-min Rain = 0
KAM3 180144Z 17013KT 12/M03 A2999 RMK A01 T01151025  RH  038%=      5-min Rain = 0
KAM3 180145Z 17014KT 12/M03 A2999 RMK A01 T01151025  RH  038%=      5-min Rain = 0
KAM3 180146Z 17014KT 12/M03 A2999 RMK A01 T01151025  RH  038%=      5-min Rain = 0
KAM3 180147Z 17015KT 12/M02 A2999 RMK A01 T01161024  RH  037%=      5-min Rain = 0
KAM3 180148Z 17015KT 12/M03 A2999 RMK A01 T01171025  RH  037%=      5-min Rain = 0
KAM3 180149Z 17015KT 12/M02 A2999 RMK A01 T01181024  RH  037%=      5-min Rain = 0
KAM3 180150Z 17014KT 12/M03 A2999 RMK A01 T01181025  RH  037%=      5-min Rain = 0
KAM3 180151Z 17014KT 12/M03 A2999 RMK A01 T01181025  RH  037%=      5-min Rain = 0
KAM3 180152Z 17015KT 12/M02 A2999 RMK A01 T01181024  RH  037%=      5-min Rain = 0
KAM3 180153Z 17015KT 12/M02 A2999 RMK A01 T01181024  RH  037%=      5-min Rain = 0
KAM3 180154Z 17014KT 12/M02 A2999 RMK A01 T01171024  RH  037%=      5-min Rain = 0
KAM3 180155Z 17014KT 12/M02 A2999 RMK A01 T01171024  RH  037%=      5-min Rain = 0
KAM3 180156Z 17014KT 12/M03 A2999 RMK A01 T01171025  RH  037%=      5-min Rain = 0
KAM3 180157Z 17014KT 12/M03 A2999 RMK A01 T01161025  RH  037%=      5-min Rain = 0
KAM3 180158Z 17014KT 12/M03 A2999 RMK A01 T01151025  RH  037%=      5-min Rain = 0
KAM3 180159Z 17015KT 12/M03 A2999 RMK A01 T01151025  RH  038%=      5-min Rain = 0
KAM3 180200Z 17015KT 11/M03 A2999 RMK A01 T01141025  RH  038%=      5-min Rain = 0
KAM3 180201Z 17016KT 11/M03 A2999 RMK A01 T01141025  RH  038%=      5-min Rain = 0
KAM3 180202Z 17016KT 11/M02 A2999 RMK A01 T01141024  RH  038%=      5-min Rain = 0
KAM3 180203Z 17016KT 11/M02 A2999 RMK A01 T01141024  RH  038%=      5-min Rain = 0
KAM3 180204Z 17015KT 12/M02 A2999 RMK A01 T01151024  RH  038%=      5-min Rain = 0
KAM3 180205Z 17014KT 11/M02 A2999 RMK A01 T01141024  RH  038%=      5-min Rain = 0
KAM3 180206Z 17014KT 11/M03 A2999 RMK A01 T01141025  RH  038%=      5-min Rain = 0
KAM3 180207Z 17014KT 11/M03 A2999 RMK A01 T01131025  RH  038%=      5-min Rain = 0
KAM3 180208Z 17013KT 11/M03 A2999 RMK A01 T01121025  RH  038%=      5-min Rain = 0
KAM3 180209Z 17014KT 11/M03 A2999 RMK A01 T01101025  RH  039%=      5-min Rain = 0
KAM3 180210Z 17014KT 11/M03 A2999 RMK A01 T01091025  RH  039%=      5-min Rain = 0
KAM3 180211Z 17014KT 11/M03 A2999 RMK A01 T01081025  RH  039%=      5-min Rain = 0
KAM3 180212Z 17014KT 11/M03 A2999 RMK A01 T01071025  RH  039%=      5-min Rain = 0
KAM3 180213Z 17014KT 11/M03 A2999 RMK A01 T01071025  RH  040%=      5-min Rain = 0
KAM3 180214Z 17014KT 11/M03 A2999 RMK A01 T01061025  RH  040%=      5-min Rain = 0
KAM3 180215Z 17014KT 11/M03 A2999 RMK A01 T01051025  RH  040%=      5-min Rain = 0
KAM3 180216Z 17015KT 10/M03 A2999 RMK A01 T01031025  RH  041%=      5-min Rain = 0
KAM3 180217Z 17014KT 10/M02 A2999 RMK A01 T01031024  RH  041%=      5-min Rain = 0
KAM3 180218Z 17014KT 10/M02 A2999 RMK A01 T01031024  RH  041%=      5-min Rain = 0
KAM3 180219Z 17015KT 10/M02 A2999 RMK A01 T01041024  RH  041%=      5-min Rain = 0
KAM3 180220Z 17014KT 11/M02 A2999 RMK A01 T01051024  RH  040%=      5-min Rain = 0
KAM3 180221Z 17014KT 11/M02 A2999 RMK A01 T01061024  RH  040%=      5-min Rain = 0
KAM3 180222Z 17014KT 11/M02 A2999 RMK A01 T01061024  RH  040%=      5-min Rain = 0
KAM3 180223Z 17015KT 11/M02 A2999 RMK A01 T01061024  RH  040%=      5-min Rain = 0
KAM3 180224Z 17016KT 11/M02 A2999 RMK A01 T01071024  RH  040%=      5-min Rain = 0
KAM3 180225Z 17016KT 11/M02 A2999 RMK A01 T01091023  RH  039%=      5-min Rain = 0
KAM3 180226Z 17017KT 11/M02 A2999 RMK A01 T01101023  RH  039%=      5-min Rain = 0
KAM3 180227Z 17016KT 11/M02 A2999 RMK A01 T01111023  RH  039%=      5-min Rain = 0
KAM3 180228Z 17017KT 11/M02 A2999 RMK A01 T01121024  RH  039%=      5-min Rain = 0
KAM3 180229Z 17016KT 11/M02 A2999 RMK A01 T01131024  RH  039%=      5-min Rain = 0
KAM3 180230Z 17018KT 11/M02 A2999 RMK A01 T01131023  RH  038%=      5-min Rain = 0
KAM3 180231Z 17017KT 11/M02 A2999 RMK A01 T01131024  RH  038%=      5-min Rain = 0
KAM3 180232Z 17017KT 11/M02 A2999 RMK A01 T01131024  RH  038%=      5-min Rain = 0
KAM3 180233Z 16017KT 11/M02 A2999 RMK A01 T01131024  RH  038%=      5-min Rain = 0
KAM3 180234Z 17017G22KT 11/M02 A2999 RMK A01 T01131023  RH  038%=      5-min Rain = 0
KAM3 180235Z 17017KT 11/M02 A2999 RMK A01 T01131024  RH  039%=      5-min Rain = 0
KAM3 180236Z 17017KT 11/M02 A2999 RMK A01 T01131024  RH  038%=      5-min Rain = 0
KAM3 180237Z 17016KT 11/M02 A2999 RMK A01 T01131024  RH  039%=      5-min Rain = 0
KAM3 180238Z 16016KT 11/M02 A2999 RMK A01 T01121024  RH  039%=      5-min Rain = 0
KAM3 180239Z 16016KT 11/M02 A2999 RMK A01 T01111024  RH  039%=      5-min Rain = 0
KAM3 180240Z 16016KT 11/M02 A2998 RMK A01 T01101024  RH  039%=      5-min Rain = 0
KAM3 180241Z 16015KT 11/M02 A2998 RMK A01 T01101023  RH  039%=      5-min Rain = 0
KAM3 180242Z 16015KT 11/M02 A2998 RMK A01 T01091023  RH  039%=      5-min Rain = 0
KAM3 180243Z 16015KT 11/M02 A2998 RMK A01 T01081024  RH  040%=      5-min Rain = 0
KAM3 180244Z 16015KT 11/M02 A2998 RMK A01 T01071024  RH  040%=      5-min Rain = 0
KAM3 180245Z 16016KT 11/M02 A2998 RMK A01 T01061024  RH  040%=      5-min Rain = 0
KAM3 180246Z 16016KT 11/M02 A2998 RMK A01 T01061024  RH  040%=      5-min Rain = 0
KAM3 180247Z 16016KT 11/M02 A2998 RMK A01 T01051024  RH  040%=      5-min Rain = 0
KAM3 180248Z 16015KT 10/M02 A2998 RMK A01 T01041024  RH  041%=      5-min Rain = 0
KAM3 180249Z 16015KT 10/M02 A2998 RMK A01 T01031024  RH  041%=      5-min Rain = 0
KAM3 180250Z 16016KT 10/M02 A2998 RMK A01 T01021024  RH  041%=      5-min Rain = 0
KAM3 180251Z 16014KT 10/M02 A2998 RMK A01 T01021024  RH  041%=      5-min Rain = 0
KAM3 180252Z 16014KT 10/M02 A2998 RMK A01 T01011024  RH  041%=      5-min Rain = 0
KAM3 180253Z 16014KT 10/M02 A2998 RMK A01 T01001024  RH  042%=      5-min Rain = 0
KAM3 180254Z 16013KT 10/M02 A2998 RMK A01 T00991024  RH  042%=      5-min Rain = 0
KAM3 180255Z 17014KT 10/M02 A2998 RMK A01 T00991024  RH  042%=      5-min Rain = 0
KAM3 180256Z 17012KT 10/M02 A2998 RMK A01 T00981024  RH  042%=      5-min Rain = 0
KAM3 180257Z 17013KT 10/M02 A2998 RMK A01 T00971024  RH  042%=      5-min Rain = 0
KAM3 180258Z 17013KT 10/M02 A2998 RMK A01 T00971024  RH  043%=      5-min Rain = 0
KAM3 180259Z 17012KT 10/M02 A2998 RMK A01 T00971024  RH  043%=      5-min Rain = 0
KAM3 180300Z 17011KT 10/M02 A2998 RMK A01 T00961024  RH  043%=      5-min Rain = 0
KAM3 180301Z 17010KT 10/M03 A2998 RMK A01 T00951025  RH  043%=      5-min Rain = 0
KAM3 180302Z 18010KT 09/M02 A2998 RMK A01 T00941024  RH  043%=      5-min Rain = 0
KAM3 180303Z 18009KT 09/M02 A2998 RMK A01 T00931024  RH  044%=      5-min Rain = 0
KAM3 180304Z 18008KT 09/M02 A2998 RMK A01 T00931024  RH  044%=      5-min Rain = 0
KAM3 180305Z 18008KT 09/M02 A2998 RMK A01 T00931024  RH  044%=      5-min Rain = 0
KAM3 180306Z 19008KT 09/M03 A2998 RMK A01 T00911025  RH  044%=      5-min Rain = 0
KAM3 180307Z 19007KT 09/M03 A2998 RMK A01 T00911025  RH  044%=      5-min Rain = 0
KAM3 180308Z 19007KT 09/M03 A2998 RMK A01 T00901025  RH  044%=      5-min Rain = 0
KAM3 180309Z 19006KT 09/M03 A2998 RMK A01 T00891025  RH  044%=      5-min Rain = 0
KAM3 180310Z 19006KT 09/M03 A2998 RMK A01 T00881025  RH  045%=      5-min Rain = 0
KAM3 180311Z 19005KT 09/M03 A2998 RMK A01 T00871026  RH  045%=      5-min Rain = 0
KAM3 180312Z 19005KT 09/M03 A2998 RMK A01 T00861026  RH  045%=      5-min Rain = 0
KAM3 180313Z 19005KT 09/M03 A2998 RMK A01 T00851026  RH  045%=      5-min Rain = 0
KAM3 180314Z 19004KT 09/M03 A2998 RMK A01 T00851026  RH  046%=      5-min Rain = 0
KAM3 180315Z 19004KT 08/M03 A2998 RMK A01 T00841027  RH  046%=      5-min Rain = 0
KAM3 180316Z 19004KT 08/M03 A2998 RMK A01 T00831027  RH  046%=      5-min Rain = 0
KAM3 180317Z 19004KT 08/M03 A2998 RMK A01 T00831026  RH  046%=      5-min Rain = 0
KAM3 180318Z 19004KT 08/M03 A2998 RMK A01 T00831026  RH  046%=      5-min Rain = 0
KAM3 180319Z 19004KT 08/M03 A2998 RMK A01 T00831026  RH  046%=      5-min Rain = 0
KAM3 180320Z 20004KT 08/M03 A2998 RMK A01 T00831026  RH  046%=      5-min Rain = 0
KAM3 180321Z 20006KT 08/M03 A2997 RMK A01 T00841025  RH  046%=      5-min Rain = 0
KAM3 180322Z 19010KT 09/M02 A2997 RMK A01 T00881023  RH  046%=      5-min Rain = 0
KAM3 180323Z 19011KT 10/M02 A2997 RMK A01 T00951019  RH  045%=      5-min Rain = 0
KAM3 180324Z 19012G18KT 10/M02 A2997 RMK A01 T01021018  RH  043%=      5-min Rain = 0
KAM3 180325Z 19013G18KT 11/M02 A2997 RMK A01 T01081018  RH  041%=      5-min Rain = 0
KAM3 180326Z 19012KT 11/M02 A2997 RMK A01 T01121018  RH  040%=      5-min Rain = 0
KAM3 180327Z 18013KT 11/M02 A2997 RMK A01 T01141019  RH  040%=      5-min Rain = 0
KAM3 180328Z 18012KT 12/M02 A2997 RMK A01 T01161019  RH  039%=      5-min Rain = 0
KAM3 180329Z 18012KT 12/M02 A2997 RMK A01 T01171020  RH  039%=      5-min Rain = 0
KAM3 180330Z 18010KT 12/M02 A2997 RMK A01 T01171020  RH  038%=      5-min Rain = 0
KAM3 180331Z 18010KT 12/M02 A2997 RMK A01 T01171020  RH  038%=      5-min Rain = 0
KAM3 180332Z 19011KT 12/M02 A2997 RMK A01 T01171021  RH  038%=      5-min Rain = 0
KAM3 180333Z 19010G15KT 12/M02 A2997 RMK A01 T01161021  RH  038%=      5-min Rain = 0
KAM3 180334Z 19012KT 12/M02 A2997 RMK A01 T01161021  RH  038%=      5-min Rain = 0
KAM3 180335Z 19011KT 12/M02 A2997 RMK A01 T01171021  RH  038%=      5-min Rain = 0
KAM3 180336Z 19013KT 12/M02 A2997 RMK A01 T01171021  RH  038%=      5-min Rain = 0
KAM3 180337Z 19012KT 12/M02 A2997 RMK A01 T01181022  RH  037%=      5-min Rain = 0
KAM3 180338Z 19011KT 12/M02 A2997 RMK A01 T01191023  RH  037%=      5-min Rain = 0
KAM3 180339Z 19010KT 12/M02 A2997 RMK A01 T01191023  RH  037%=      5-min Rain = 0
KAM3 180340Z 19012KT 12/M02 A2997 RMK A01 T01181023  RH  037%=      5-min Rain = 0
KAM3 180341Z 19011KT 12/M02 A2996 RMK A01 T01181023  RH  037%=      5-min Rain = 0
KAM3 180342Z 19011KT 12/M02 A2996 RMK A01 T01181023  RH  037%=      5-min Rain = 0
KAM3 180343Z 19011KT 12/M02 A2996 RMK A01 T01171023  RH  038%=      5-min Rain = 0
KAM3 180344Z 19012KT 12/M02 A2996 RMK A01 T01171023  RH  038%=      5-min Rain = 0
KAM3 180345Z 20010KT 12/M02 A2996 RMK A01 T01171023  RH  037%=      5-min Rain = 0
KAM3 180346Z 20010KT 12/M02 A2996 RMK A01 T01171023  RH  037%=      5-min Rain = 0
KAM3 180347Z 20010KT 12/M02 A2996 RMK A01 T01161024  RH  038%=      5-min Rain = 0
KAM3 180348Z 21009KT 11/M02 A2996 RMK A01 T01141024  RH  038%=      5-min Rain = 0
KAM3 180349Z 21009KT 11/M02 A2996 RMK A01 T01131024  RH  038%=      5-min Rain = 0
KAM3 180350Z 21011KT 11/M02 A2997 RMK A01 T01131024  RH  038%=      5-min Rain = 0
KAM3 180351Z 21011KT 11/M02 A2996 RMK A01 T01131023  RH  039%=      5-min Rain = 0
KAM3 180352Z 21011KT 11/M02 A2997 RMK A01 T01131023  RH  038%=      5-min Rain = 0
KAM3 180353Z 21012KT 11/M02 A2997 RMK A01 T01121023  RH  039%=      5-min Rain = 0
KAM3 180354Z 21011KT 11/M02 A2996 RMK A01 T01111022  RH  039%=      5-min Rain = 0
KAM3 180355Z 21011KT 11/M02 A2996 RMK A01 T01101022  RH  040%=      5-min Rain = 0
KAM3 180356Z 20012KT 11/M02 A2996 RMK A01 T01091022  RH  040%=      5-min Rain = 0
KAM3 180357Z 20010KT 11/M02 A2996 RMK A01 T01081022  RH  040%=      5-min Rain = 0
KAM3 180358Z 20009KT 11/M02 A2996 RMK A01 T01071022  RH  040%=      5-min Rain = 0
KAM3 180359Z 20010KT 11/M02 A2996 RMK A01 T01061022  RH  041%=      5-min Rain = 0
KAM3 180400Z 20010KT 11/M02 A2996 RMK A01 T01051022  RH  041%=      5-min Rain = 0
KAM3 180401Z 20010KT 10/M02 A2996 RMK A01 T01041022  RH  041%=      5-min Rain = 0
KAM3 180402Z 20008KT 10/M02 A2996 RMK A01 T01031022  RH  041%=      5-min Rain = 0
KAM3 180403Z 20008KT 10/M02 A2996 RMK A01 T01021023  RH  042%=      5-min Rain = 0
KAM3 180404Z 20009KT 10/M02 A2996 RMK A01 T01021023  RH  042%=      5-min Rain = 0
KAM3 180405Z 20008KT 10/M02 A2996 RMK A01 T01011023  RH  042%=      5-min Rain = 0
KAM3 180406Z 20008KT 10/M02 A2996 RMK A01 T01001023  RH  042%=      5-min Rain = 0
KAM3 180407Z 20009KT 10/M02 A2996 RMK A01 T01001023  RH  042%=      5-min Rain = 0
KAM3 180408Z 20009KT 10/M02 A2996 RMK A01 T01001023  RH  042%=      5-min Rain = 0
KAM3 180409Z 20008KT 10/M02 A2996 RMK A01 T01011023  RH  042%=      5-min Rain = 0
KAM3 180410Z 19008KT 10/M02 A2996 RMK A01 T01011023  RH  042%=      5-min Rain = 0
KAM3 180411Z 19009KT 10/M02 A2996 RMK A01 T01011023  RH  042%=      5-min Rain = 0
KAM3 180412Z 19010KT 10/M02 A2996 RMK A01 T01011022  RH  042%=      5-min Rain = 0
KAM3 180413Z 19008KT 10/M02 A2996 RMK A01 T01031022  RH  042%=      5-min Rain = 0
KAM3 180414Z 19009KT 10/M02 A2996 RMK A01 T01031022  RH  042%=      5-min Rain = 0
KAM3 180415Z 19009KT 10/M02 A2996 RMK A01 T01031022  RH  042%=      5-min Rain = 0
KAM3 180416Z 19009KT 10/M02 A2996 RMK A01 T01031023  RH  041%=      5-min Rain = 0
KAM3 180417Z 19009KT 10/M02 A2996 RMK A01 T01031023  RH  041%=      5-min Rain = 0
KAM3 180418Z 19008KT 10/M02 A2996 RMK A01 T01041023  RH  041%=      5-min Rain = 0
KAM3 180419Z 19008KT 10/M02 A2996 RMK A01 T01041023  RH  041%=      5-min Rain = 0
KAM3 180420Z 19008KT 10/M02 A2996 RMK A01 T01031023  RH  041%=      5-min Rain = 0
KAM3 180421Z 19008KT 10/M02 A2996 RMK A01 T01031023  RH  041%=      5-min Rain = 0
KAM3 180422Z 19007KT 10/M02 A2996 RMK A01 T01021023  RH  041%=      5-min Rain = 0
KAM3 180423Z 19007KT 10/M02 A2996 RMK A01 T01011023  RH  042%=      5-min Rain = 0
KAM3 180424Z 19007KT 10/M02 A2996 RMK A01 T01001024  RH  042%=      5-min Rain = 0
KAM3 180425Z 19007KT 10/M02 A2995 RMK A01 T00991024  RH  042%=      5-min Rain = 0
KAM3 180426Z 19007KT 10/M02 A2995 RMK A01 T00991024  RH  042%=      5-min Rain = 0
KAM3 180427Z 18006KT 10/M02 A2995 RMK A01 T00991024  RH  042%=      5-min Rain = 0
KAM3 180428Z 18006KT 10/M02 A2995 RMK A01 T00981024  RH  042%=      5-min Rain = 0
KAM3 180429Z 18005KT 10/M02 A2995 RMK A01 T00971024  RH  043%=      5-min Rain = 0
KAM3 180430Z 18005KT 10/M03 A2995 RMK A01 T00951025  RH  043%=      5-min Rain = 0
KAM3 180431Z 17005KT 09/M03 A2995 RMK A01 T00941025  RH  043%=      5-min Rain = 0
KAM3 180432Z 17005KT 09/M03 A2995 RMK A01 T00931025  RH  043%=      5-min Rain = 0
KAM3 180433Z 17005KT 09/M03 A2995 RMK A01 T00921026  RH  044%=      5-min Rain = 0
KAM3 180434Z 16005KT 09/M03 A2995 RMK A01 T00911026  RH  044%=      5-min Rain = 0
KAM3 180435Z 16005KT 09/M03 A2995 RMK A01 T00901026  RH  044%=      5-min Rain = 0
KAM3 180436Z 16005KT 09/M03 A2995 RMK A01 T00891026  RH  044%=      5-min Rain = 0
KAM3 180437Z 16005KT 09/M03 A2995 RMK A01 T00881026  RH  045%=      5-min Rain = 0
KAM3 180438Z 15005KT 09/M03 A2995 RMK A01 T00871026  RH  045%=      5-min Rain = 0
KAM3 180439Z 15005KT 09/M03 A2995 RMK A01 T00861026  RH  045%=      5-min Rain = 0
KAM3 180440Z 15005KT 09/M03 A2995 RMK A01 T00851027  RH  045%=      5-min Rain = 0
KAM3 180441Z 14006KT 08/M03 A2995 RMK A01 T00841026  RH  046%=      5-min Rain = 0
KAM3 180442Z 14004KT 08/M03 A2995 RMK A01 T00841026  RH  046%=      5-min Rain = 0
KAM3 180443Z 16004KT 09/M03 A2995 RMK A01 T00861025  RH  046%=      5-min Rain = 0
KAM3 180444Z 12003KT 09/M03 A2996 RMK A01 T00861026  RH  045%=      5-min Rain = 0
KAM3 180445Z 13003KT 09/M03 A2996 RMK A01 T00861025  RH  045%=      5-min Rain = 0
KAM3 180446Z 14002KT 09/M03 A2995 RMK A01 T00861025  RH  046%=      5-min Rain = 0
KAM3 180447Z 15002KT 08/M03 A2995 RMK A01 T00841026  RH  046%=      5-min Rain = 0
KAM3 180448Z 17003KT 08/M03 A2995 RMK A01 T00831026  RH  046%=      5-min Rain = 0
KAM3 180449Z 17004KT 08/M03 A2995 RMK A01 T00821025  RH  047%=      5-min Rain = 0
KAM3 180450Z 17005KT 08/M03 A2995 RMK A01 T00811027  RH  047%=      5-min Rain = 0
KAM3 180451Z 18006KT 08/M03 A2995 RMK A01 T00781027  RH  047%=      5-min Rain = 0
KAM3 180452Z 17006KT 08/M03 A2995 RMK A01 T00771026  RH  048%=      5-min Rain = 0
KAM3 180453Z 17007KT 08/M03 A2995 RMK A01 T00771025  RH  048%=      5-min Rain = 0
KAM3 180454Z 17007KT 08/M03 A2995 RMK A01 T00761026  RH  048%=      5-min Rain = 0
KAM3 180455Z 17008KT 08/M03 A2995 RMK A01 T00751026  RH  049%=      5-min Rain = 0
KAM3 180456Z 18009KT 07/M03 A2995 RMK A01 T00741026  RH  049%=      5-min Rain = 0
KAM3 180457Z 18009KT 07/M03 A2995 RMK A01 T00731026  RH  049%=      5-min Rain = 0
KAM3 180458Z 18009KT 07/M03 A2995 RMK A01 T00731026  RH  049%=      5-min Rain = 0
KAM3 180459Z 18009KT 07/M03 A2994 RMK A01 T00741026  RH  049%=      5-min Rain = 0
KAM3 180500Z 18009KT 07/M03 A2994 RMK A01 T00741026  RH  049%=      5-min Rain = 0
KAM3 180501Z 19009KT 07/M03 A2994 RMK A01 T00731027  RH  049%=      5-min Rain = 0
KAM3 180502Z 19011KT 07/M03 A2994 RMK A01 T00731027  RH  049%=      5-min Rain = 0
KAM3 180503Z 19011KT 08/M03 A2994 RMK A01 T00751025  RH  049%=      5-min Rain = 0
KAM3 180504Z 19010KT 08/M03 A2994 RMK A01 T00781025  RH  048%=      5-min Rain = 0
KAM3 180505Z 19011KT 08/M03 A2994 RMK A01 T00801025  RH  047%=      5-min Rain = 0
KAM3 180506Z 19012KT 08/M03 A2994 RMK A01 T00821026  RH  046%=      5-min Rain = 0
KAM3 180507Z 19011KT 09/M03 A2994 RMK A01 T00851026  RH  046%=      5-min Rain = 0
KAM3 180508Z 19011KT 09/M03 A2994 RMK A01 T00851027  RH  045%=      5-min Rain = 0
KAM3 180509Z 19012KT 09/M03 A2994 RMK A01 T00861027  RH  045%=      5-min Rain = 0
KAM3 180510Z 20012KT 09/M03 A2994 RMK A01 T00871028  RH  044%=      5-min Rain = 0
KAM3 180511Z 20013KT 09/M03 A2994 RMK A01 T00881028  RH  044%=      5-min Rain = 0
KAM3 180512Z 20013KT 09/M03 A2994 RMK A01 T00891028  RH  043%=      5-min Rain = 0
KAM3 180513Z 20013KT 09/M03 A2994 RMK A01 T00901029  RH  043%=      5-min Rain = 0
KAM3 180514Z 21014KT 09/M03 A2994 RMK A01 T00901029  RH  043%=      5-min Rain = 0
KAM3 180515Z 21014KT 09/M03 A2994 RMK A01 T00901029  RH  043%=      5-min Rain = 0
KAM3 180516Z 21014KT 09/M03 A2994 RMK A01 T00911030  RH  042%=      5-min Rain = 0
KAM3 180517Z 21014KT 09/M03 A2994 RMK A01 T00921030  RH  042%=      5-min Rain = 0
KAM3 180518Z 21014KT 09/M03 A2994 RMK A01 T00921030  RH  042%=      5-min Rain = 0
KAM3 180519Z 21015KT 09/M03 A2994 RMK A01 T00921030  RH  042%=      5-min Rain = 0
KAM3 180520Z 21014KT 09/M03 A2994 RMK A01 T00941031  RH  042%=      5-min Rain = 0
KAM3 180521Z 21015KT 09/M03 A2994 RMK A01 T00941031  RH  041%=      5-min Rain = 0
KAM3 180522Z 21015KT 09/M03 A2994 RMK A01 T00941032  RH  041%=      5-min Rain = 0
KAM3 180523Z 21014KT 09/M03 A2994 RMK A01 T00941032  RH  041%=      5-min Rain = 0
KAM3 180524Z 21015KT 10/M03 A2994 RMK A01 T00951032  RH  041%=      5-min Rain = 0
KAM3 180525Z 21015KT 10/M03 A2994 RMK A01 T00951032  RH  041%=      5-min Rain = 0
KAM3 180526Z 21014KT 10/M03 A2994 RMK A01 T00951032  RH  041%=      5-min Rain = 0
KAM3 180527Z 21014KT 10/M03 A2994 RMK A01 T00951033  RH  040%=      5-min Rain = 0
KAM3 180528Z 21013KT 10/M03 A2994 RMK A01 T00951033  RH  040%=      5-min Rain = 0
KAM3 180529Z 21014KT 10/M03 A2994 RMK A01 T00951033  RH  040%=      5-min Rain = 0
KAM3 180530Z 21013KT 10/M03 A2994 RMK A01 T00951034  RH  040%=      5-min Rain = 0
KAM3 180531Z 21016KT 09/M03 A2994 RMK A01 T00941034  RH  040%=      5-min Rain = 0
KAM3 180532Z 21015KT 10/M03 A2994 RMK A01 T00951034  RH  040%=      5-min Rain = 0
KAM3 180533Z 21016KT 10/M03 A2994 RMK A01 T00951034  RH  040%=      5-min Rain = 0
KAM3 180534Z 21015KT 10/M03 A2994 RMK A01 T00951034  RH  040%=      5-min Rain = 0
KAM3 180535Z 21016KT 10/M03 A2993 RMK A01 T00951034  RH  040%=      5-min Rain = 0
KAM3 180536Z 21014KT 10/M04 A2993 RMK A01 T00951035  RH  040%=      5-min Rain = 0
KAM3 180537Z 21017KT 09/M04 A2993 RMK A01 T00941035  RH  040%=      5-min Rain = 0
KAM3 180538Z 21016KT 09/M04 A2993 RMK A01 T00941035  RH  040%=      5-min Rain = 0
KAM3 180539Z 21016KT 10/M04 A2993 RMK A01 T00951035  RH  040%=      5-min Rain = 0
KAM3 180540Z 21014KT 10/M04 A2993 RMK A01 T00951036  RH  040%=      5-min Rain = 0
KAM3 180541Z 20015KT 10/M04 A2993 RMK A01 T00951036  RH  040%=      5-min Rain = 0
KAM3 180542Z 20014KT 10/M04 A2993 RMK A01 T00951036  RH  040%=      5-min Rain = 0
KAM3 180543Z 20015KT 09/M04 A2993 RMK A01 T00941036  RH  040%=      5-min Rain = 0
KAM3 180544Z 20014KT 09/M04 A2993 RMK A01 T00941037  RH  040%=      5-min Rain = 0
KAM3 180545Z 20015KT 09/M04 A2993 RMK A01 T00941037  RH  039%=      5-min Rain = 0
KAM3 180546Z 20015KT 09/M04 A2993 RMK A01 T00941038  RH  039%=      5-min Rain = 0
KAM3 180547Z 20016KT 09/M04 A2993 RMK A01 T00941038  RH  039%=      5-min Rain = 0
KAM3 180548Z 20017KT 10/M04 A2993 RMK A01 T00961038  RH  039%=      5-min Rain = 0
KAM3 180549Z 20018KT 10/M04 A2993 RMK A01 T00971038  RH  038%=      5-min Rain = 0
KAM3 180550Z 21017KT 10/M04 A2993 RMK A01 T00981039  RH  038%=      5-min Rain = 0
KAM3 180551Z 20018KT 10/M04 A2993 RMK A01 T00981039  RH  038%=      5-min Rain = 0
KAM3 180552Z 20019KT 10/M04 A2993 RMK A01 T01001040  RH  037%=      5-min Rain = 0
KAM3 180553Z 20018KT 10/M04 A2993 RMK A01 T01011040  RH  037%=      5-min Rain = 0
KAM3 180554Z 20017KT 10/M04 A2993 RMK A01 T01011040  RH  037%=      5-min Rain = 0
KAM3 180555Z 20018G23KT 10/M04 A2993 RMK A01 T01011040  RH  037%=      5-min Rain = 0
KAM3 180556Z 21017G22KT 10/M04 A2993 RMK A01 T01011040  RH  037%=      5-min Rain = 0
KAM3 180557Z 20016KT 10/M04 A2993 RMK A01 T01001040  RH  037%=      5-min Rain = 0
KAM3 180558Z 21017KT 10/M04 A2993 RMK A01 T00991040  RH  037%=      5-min Rain = 0
KAM3 180559Z 20017KT 10/M04 A2993 RMK A01 T00981040  RH  037%=      5-min Rain = 0

Page generated in 0.1761 seconds.